Time,TemperatureF,DewpointF,PressureIn,WindDirection,WindDirectionDegrees,WindSpeedMPH,WindSpeedGustMPH,Humidity,HourlyPrecipIn,Conditions,Clouds,dailyrainin,SoftwareType,DateUTC
2013-03-20 00:02:00,25.1,7.2,30.13,NNW,338,5.8,5.8,46,0.00,,OVC065,0.00,VWS V14.01,2013-03-20 05:02:00,
2013-03-20 00:03:00,24.9,7.1,30.13,SSW,202,17.8,17.8,46,0.00,,OVC065,0.00,VWS V14.01,2013-03-20 05:03:00,
2013-03-20 00:04:00,24.9,7.1,30.13,SW,225,4.0,17.8,46,0.00,,OVC065,0.00,VWS V14.01,2013-03-20 05:04:00,
2013-03-20 00:09:00,24.9,7.1,30.13,NNW,338,14.2,14.2,46,0.00,,OVC065,0.00,VWS V14.01,2013-03-20 05:09:00,
2013-03-20 00:10:00,24.9,7.1,30.13,NNW,338,26.2,26.2,46,0.00,,OVC065,0.00,VWS V14.01,2013-03-20 05:10:00,
2013-03-20 00:12:00,24.9,7.1,30.13,NNW,338,12.8,13.4,46,0.00,,OVC065,0.00,VWS V14.01,2013-03-20 05:12:00,
2013-03-20 00:14:00,24.6,6.8,30.13,North,0,17.0,17.0,46,0.00,,OVC065,0.00,VWS V14.01,2013-03-20 05:14:00,
2013-03-20 00:15:00,24.6,6.8,30.13,NNW,338,13.4,13.4,46,0.00,,OVC065,0.00,VWS V14.01,2013-03-20 05:15:00,
2013-03-20 00:18:00,24.4,6.1,30.13,North,0,8.4,19.2,45,0.00,,OVC065,0.00,VWS V14.01,2013-03-20 05:18:00,
2013-03-20 00:20:00,24.2,6.4,30.13,NNW,338,19.2,19.2,46,0.00,,OVC065,0.00,VWS V14.01,2013-03-20 05:20:00,
2013-03-20 00:22:00,24.2,6.4,30.13,NNW,338,8.4,19.2,46,0.00,,OVC065,0.00,VWS V14.01,2013-03-20 05:22:00,
2013-03-20 00:23:00,24.2,6.4,30.13,SSW,202,6.2,8.4,46,0.00,,OVC065,0.00,VWS V14.01,2013-03-20 05:23:00,
2013-03-20 00:26:00,24.0,6.2,30.13,NNW,338,14.2,14.2,46,0.00,,OVC065,0.00,VWS V14.01,2013-03-20 05:26:00,
2013-03-20 00:27:00,23.9,6.1,30.13,NNW,338,9.2,14.2,46,0.00,,OVC065,0.00,VWS V14.01,2013-03-20 05:27:00,
2013-03-20 00:28:00,23.9,6.1,30.13,NNW,338,13.4,14.2,46,0.00,,OVC065,0.00,VWS V14.01,2013-03-20 05:28:00,
2013-03-20 00:32:00,23.7,6.4,30.13,North,0,10.6,10.6,47,0.00,,OVC065,0.00,VWS V14.01,2013-03-20 05:32:00,
2013-03-20 00:34:00,23.5,6.2,30.13,NNW,338,9.8,12.4,47,0.00,,OVC065,0.00,VWS V14.01,2013-03-20 05:34:00,
2013-03-20 00:37:00,23.3,6.1,30.13,SSW,202,7.0,9.2,47,0.00,,OVC065,0.00,VWS V14.01,2013-03-20 05:37:00,
2013-03-20 00:40:00,23.1,6.3,30.13,NNW,338,4.8,9.2,48,0.00,,OVC070,0.00,VWS V14.01,2013-03-20 05:40:00,
2013-03-20 00:41:00,23.1,6.3,30.13,North,0,12.0,12.0,48,0.00,,OVC070,0.00,VWS V14.01,2013-03-20 05:41:00,
2013-03-20 00:43:00,23.1,6.3,30.13,NNW,338,8.4,8.4,48,0.00,,OVC070,0.00,VWS V14.01,2013-03-20 05:43:00,
2013-03-20 00:47:00,22.8,6.5,30.13,NNW,338,22.8,22.8,49,0.00,,OVC070,0.00,VWS V14.01,2013-03-20 05:47:00,
2013-03-20 00:48:00,22.6,6.3,30.13,NNW,338,8.4,22.8,49,0.00,,OVC070,0.00,VWS V14.01,2013-03-20 05:48:00,
2013-03-20 00:53:00,22.4,6.2,30.14,North,0,10.2,10.2,49,0.00,,OVC070,0.00,VWS V14.01,2013-03-20 05:53:00,
2013-03-20 00:54:00,22.2,6.4,30.14,NNW,338,7.6,10.2,50,0.00,,OVC070,0.00,VWS V14.01,2013-03-20 05:54:00,
2013-03-20 00:56:00,22.2,6.4,30.14,North,0,5.8,7.6,50,0.00,,OVC070,0.00,VWS V14.01,2013-03-20 05:56:00,
2013-03-20 00:59:00,22.1,6.3,30.14,North,0,11.0,11.0,50,0.00,,OVC070,0.00,VWS V14.01,2013-03-20 05:59:00,
2013-03-20 01:00:00,22.1,6.3,30.14,NNW,338,9.2,11.0,50,0.00,,OVC070,0.00,VWS V14.01,2013-03-20 06:00:00,
2013-03-20 01:03:00,21.9,6.1,30.14,SSW,202,15.6,15.6,50,0.00,,OVC070,0.00,VWS V14.01,2013-03-20 06:03:00,
2013-03-20 01:04:00,21.9,6.1,30.14,NNW,338,10.2,15.6,50,0.00,,OVC070,0.00,VWS V14.01,2013-03-20 06:04:00,
2013-03-20 01:06:00,21.5,5.8,30.14,NNW,338,14.2,14.2,50,0.00,,OVC070,0.00,VWS V14.01,2013-03-20 06:06:00,
2013-03-20 01:09:00,21.5,5.8,30.14,NNW,338,7.0,7.0,50,0.00,,OVC070,0.00,VWS V14.01,2013-03-20 06:09:00,
2013-03-20 01:10:00,21.3,5.6,30.14,NNW,338,7.6,7.6,50,0.00,,OVC070,0.00,VWS V14.01,2013-03-20 06:10:00,
2013-03-20 01:12:00,21.3,5.6,30.14,NNW,338,8.4,8.4,50,0.00,,OVC070,0.00,VWS V14.01,2013-03-20 06:12:00,
2013-03-20 01:14:00,21.0,4.8,30.14,NNW,338,12.0,12.0,49,0.00,,OVC070,0.00,VWS V14.01,2013-03-20 06:14:00,
2013-03-20 01:15:00,21.0,4.4,30.14,NNW,338,16.4,16.4,48,0.00,,OVC070,0.00,VWS V14.01,2013-03-20 06:15:00,
2013-03-20 01:17:00,20.8,4.2,30.14,NNW,338,22.8,22.8,48,0.00,,OVC070,0.00,VWS V14.01,2013-03-20 06:17:00,
2013-03-20 01:19:00,20.8,3.8,30.14,NNW,338,4.4,4.4,47,0.00,,OVC070,0.00,VWS V14.01,2013-03-20 06:19:00,
2013-03-20 01:20:00,20.6,3.6,30.14,NNW,338,14.6,14.6,47,0.00,,OVC070,0.00,VWS V14.01,2013-03-20 06:20:00,
2013-03-20 01:21:00,20.6,3.6,30.14,SSW,202,9.2,14.6,47,0.00,,OVC070,0.00,VWS V14.01,2013-03-20 06:21:00,
2013-03-20 01:23:00,20.4,2.9,30.14,NNW,338,13.8,19.6,46,0.00,,OVC070,0.00,VWS V14.01,2013-03-20 06:23:00,
2013-03-20 01:26:00,20.1,1.7,30.14,North,0,5.8,5.8,44,0.00,,OVC070,0.00,VWS V14.01,2013-03-20 06:26:00,
2013-03-20 01:27:00,20.1,1.2,30.14,NNW,338,10.2,10.2,43,0.00,,OVC070,0.00,VWS V14.01,2013-03-20 06:27:00,
2013-03-20 01:28:00,20.1,1.2,30.15,North,0,5.8,5.8,43,0.00,,OVC070,0.00,VWS V14.01,2013-03-20 06:28:00,
2013-03-20 01:32:00,19.7,0.3,30.15,NNW,338,15.2,15.2,42,0.00,,OVC070,0.00,VWS V14.01,2013-03-20 06:32:00,
2013-03-20 01:34:00,19.5,-0.4,30.15,North,0,5.2,15.2,41,0.00,,OVC070,0.00,VWS V14.01,2013-03-20 06:34:00,
2013-03-20 01:37:00,19.5,-0.9,30.15,NNW,338,4.4,22.8,40,0.00,,OVC070,0.00,VWS V14.01,2013-03-20 06:37:00,
2013-03-20 01:38:00,19.4,-1.0,30.15,North,0,4.8,22.8,40,0.00,,OVC070,0.00,VWS V14.01,2013-03-20 06:38:00,
2013-03-20 01:40:00,19.4,-1.0,30.15,NNW,338,17.8,17.8,40,0.00,,SCT060,0.00,VWS V14.01,2013-03-20 06:40:00,
2013-03-20 01:42:00,19.0,-1.3,30.15,NNW,338,10.6,17.8,40,0.00,,SCT060,0.00,VWS V14.01,2013-03-20 06:42:00,
2013-03-20 01:44:00,19.0,-1.3,30.15,North,0,15.6,15.6,40,0.00,,SCT060,0.00,VWS V14.01,2013-03-20 06:44:00,
2013-03-20 01:46:00,19.0,-1.3,30.15,NNW,338,9.2,20.0,40,0.00,,SCT060,0.00,VWS V14.01,2013-03-20 06:46:00,
2013-03-20 01:48:00,18.8,-1.5,30.16,North,0,14.6,14.6,40,0.00,,SCT060,0.00,VWS V14.01,2013-03-20 06:48:00,
2013-03-20 01:50:00,18.6,-2.2,30.15,NNW,338,11.0,12.8,39,0.00,,SCT060,0.00,VWS V14.01,2013-03-20 06:50:00,
2013-03-20 01:53:00,18.5,-1.8,30.16,NNE,22,10.2,10.2,40,0.00,,SCT060,0.00,VWS V14.01,2013-03-20 06:53:00,
2013-03-20 01:56:00,18.5,-1.8,30.16,SSW,202,7.0,7.0,40,0.00,,SCT060,0.00,VWS V14.01,2013-03-20 06:56:00,
2013-03-20 01:58:00,18.3,-2.0,30.16,North,0,11.0,11.0,40,0.00,,SCT060,0.00,VWS V14.01,2013-03-20 06:58:00,
2013-03-20 02:04:00,17.9,-1.8,30.16,NNW,338,17.4,17.4,41,0.00,,SCT060,0.00,VWS V14.01,2013-03-20 07:04:00,
2013-03-20 02:07:00,17.9,-1.8,30.16,NNW,338,13.8,13.8,41,0.00,,SCT060,0.00,VWS V14.01,2013-03-20 07:07:00,
2013-03-20 02:09:00,17.7,-2.0,30.16,North,0,14.6,14.6,41,0.00,,SCT060,0.00,VWS V14.01,2013-03-20 07:09:00,
2013-03-20 02:11:00,17.7,-2.0,30.16,North,0,11.6,11.6,41,0.00,,SCT060,0.00,VWS V14.01,2013-03-20 07:11:00,
2013-03-20 02:12:00,17.7,-2.0,30.16,North,0,13.8,13.8,41,0.00,,SCT060,0.00,VWS V14.01,2013-03-20 07:12:00,
2013-03-20 02:14:00,17.6,-2.1,30.16,North,0,14.2,14.2,41,0.00,,SCT060,0.00,VWS V14.01,2013-03-20 07:14:00,
2013-03-20 02:15:00,17.4,-2.3,30.16,NNW,338,23.2,23.2,41,0.00,,SCT060,0.00,VWS V14.01,2013-03-20 07:15:00,
2013-03-20 02:18:00,17.2,-3.0,30.16,North,0,8.4,12.0,40,0.00,,SCT060,0.00,VWS V14.01,2013-03-20 07:18:00,
2013-03-20 02:22:00,17.0,-4.2,30.16,NNW,338,5.2,6.6,38,0.00,,SCT060,0.00,VWS V14.01,2013-03-20 07:22:00,
2013-03-20 02:23:00,17.0,-4.2,30.16,North,0,0.0,5.2,38,0.00,,SCT060,0.00,VWS V14.01,2013-03-20 07:23:00,
2013-03-20 02:24:00,17.0,-4.8,30.16,NNW,338,5.2,5.2,37,0.00,,SCT060,0.00,VWS V14.01,2013-03-20 07:24:00,
2013-03-20 02:27:00,16.7,-5.0,30.16,NNW,338,12.8,12.8,37,0.00,,SCT060,0.00,VWS V14.01,2013-03-20 07:27:00,
2013-03-20 02:28:00,16.7,-5.0,30.16,North,0,14.6,14.6,37,0.00,,SCT060,0.00,VWS V14.01,2013-03-20 07:28:00,
2013-03-20 02:30:00,16.7,-5.6,30.16,NNW,338,8.4,8.4,36,0.00,,SCT060,0.00,VWS V14.01,2013-03-20 07:30:00,
2013-03-20 02:33:00,16.5,-5.8,30.16,North,0,3.4,10.2,36,0.00,,SCT060,0.00,VWS V14.01,2013-03-20 07:33:00,
2013-03-20 02:34:00,16.5,-5.8,30.16,NNW,338,14.2,14.2,36,0.00,,SCT060,0.00,VWS V14.01,2013-03-20 07:34:00,
2013-03-20 02:35:00,16.3,-6.0,30.16,NNW,338,15.6,15.6,36,0.00,,SCT060,0.00,VWS V14.01,2013-03-20 07:35:00,
2013-03-20 02:37:00,16.1,-6.1,30.16,North,0,7.6,20.4,36,0.00,,SCT060,0.00,VWS V14.01,2013-03-20 07:37:00,
2013-03-20 02:38:00,16.1,-6.7,30.17,North,0,14.2,14.2,35,0.00,,SCT060,0.00,VWS V14.01,2013-03-20 07:38:00,
2013-03-20 02:39:00,16.1,-6.7,30.17,NNW,338,11.0,14.2,35,0.00,,SCT060,0.00,VWS V14.01,2013-03-20 07:39:00,
2013-03-20 02:42:00,15.9,-7.5,30.17,SSW,202,8.4,19.2,34,0.00,,CLR,0.00,VWS V14.01,2013-03-20 07:42:00,
2013-03-20 02:44:00,15.9,-6.9,30.16,NNW,338,25.8,25.8,35,0.00,,CLR,0.00,VWS V14.01,2013-03-20 07:44:00,
2013-03-20 02:47:00,15.6,-8.4,30.17,NNW,338,12.4,16.4,33,0.00,,CLR,0.00,VWS V14.01,2013-03-20 07:47:00,
2013-03-20 02:52:00,15.4,-8.6,30.17,North,0,5.2,5.2,33,0.00,,CLR,0.00,VWS V14.01,2013-03-20 07:52:00,
2013-03-20 02:53:00,15.4,-8.6,30.17,NNW,338,5.8,5.8,33,0.00,,CLR,0.00,VWS V14.01,2013-03-20 07:53:00,
2013-03-20 02:54:00,15.4,-7.9,30.17,North,0,1.2,18.6,34,0.00,,CLR,0.00,VWS V14.01,2013-03-20 07:54:00,
2013-03-20 02:55:00,15.4,-7.9,30.17,North,0,1.2,1.2,34,0.00,,CLR,0.00,VWS V14.01,2013-03-20 07:55:00,
2013-03-20 03:00:00,15.2,-9.4,30.17,NE,45,5.2,8.4,32,0.00,,CLR,0.00,VWS V14.01,2013-03-20 08:00:00,
2013-03-20 03:02:00,15.0,-8.3,30.17,NNE,22,19.2,19.2,34,0.00,,CLR,0.00,VWS V14.01,2013-03-20 08:02:00,
2013-03-20 03:06:00,15.2,-8.1,30.17,NNW,338,8.4,8.4,34,0.00,,CLR,0.00,VWS V14.01,2013-03-20 08:06:00,
2013-03-20 03:07:00,15.0,-8.9,30.17,North,0,18.2,18.2,33,0.00,,CLR,0.00,VWS V14.01,2013-03-20 08:07:00,
2013-03-20 03:08:00,14.9,-9.0,30.17,North,0,10.6,18.2,33,0.00,,CLR,0.00,VWS V14.01,2013-03-20 08:08:00,
2013-03-20 03:11:00,14.9,-9.0,30.17,North,0,6.2,6.2,33,0.00,,CLR,0.00,VWS V14.01,2013-03-20 08:11:00,
2013-03-20 03:12:00,14.9,-9.0,30.17,SSW,202,10.6,10.6,33,0.00,,CLR,0.00,VWS V14.01,2013-03-20 08:12:00,
2013-03-20 03:14:00,14.9,-8.4,30.17,NNW,338,9.2,10.6,34,0.00,,CLR,0.00,VWS V14.01,2013-03-20 08:14:00,
2013-03-20 03:16:00,14.7,-8.6,30.17,North,0,11.0,11.0,34,0.00,,CLR,0.00,VWS V14.01,2013-03-20 08:16:00,
2013-03-20 03:18:00,14.7,-8.6,30.17,NNW,338,17.0,17.0,34,0.00,,CLR,0.00,VWS V14.01,2013-03-20 08:18:00,
2013-03-20 03:19:00,14.7,-8.6,30.17,NNW,338,17.0,17.0,34,0.00,,CLR,0.00,VWS V14.01,2013-03-20 08:19:00,
2013-03-20 03:21:00,14.7,-8.0,30.17,NNW,338,10.2,10.2,35,0.00,,CLR,0.00,VWS V14.01,2013-03-20 08:21:00,
2013-03-20 03:24:00,14.5,-8.1,30.17,NNW,338,11.6,16.4,35,0.00,,CLR,0.00,VWS V14.01,2013-03-20 08:24:00,
2013-03-20 03:26:00,14.3,-8.3,30.17,NNW,338,8.8,13.8,35,0.00,,CLR,0.00,VWS V14.01,2013-03-20 08:26:00,
2013-03-20 03:27:00,14.3,-8.3,30.17,NNW,338,8.8,8.8,35,0.00,,CLR,0.00,VWS V14.01,2013-03-20 08:27:00,
2013-03-20 03:30:00,14.3,-8.3,30.17,North,0,12.4,12.4,35,0.00,,CLR,0.00,VWS V14.01,2013-03-20 08:30:00,
2013-03-20 03:32:00,14.1,-9.1,30.17,NNW,338,20.0,20.0,34,0.00,,CLR,0.00,VWS V14.01,2013-03-20 08:32:00,
2013-03-20 03:35:00,14.1,-8.5,30.17,North,0,4.8,9.2,35,0.00,,CLR,0.00,VWS V14.01,2013-03-20 08:35:00,
2013-03-20 03:37:00,14.1,-8.5,30.17,SSW,202,7.6,16.4,35,0.00,,CLR,0.00,VWS V14.01,2013-03-20 08:37:00,
2013-03-20 03:40:00,14.1,-8.5,30.17,North,0,9.8,15.2,35,0.00,,CLR,0.00,VWS V14.01,2013-03-20 08:40:00,
2013-03-20 03:41:00,14.1,-8.5,30.17,North,0,10.2,10.2,35,0.00,,CLR,0.00,VWS V14.01,2013-03-20 08:41:00,
2013-03-20 03:42:00,14.1,-8.5,30.17,NNW,338,11.6,11.6,35,0.00,,CLR,0.00,VWS V14.01,2013-03-20 08:42:00,
2013-03-20 03:44:00,14.1,-8.5,30.17,SSW,202,4.4,4.4,35,0.00,,CLR,0.00,VWS V14.01,2013-03-20 08:44:00,
2013-03-20 03:46:00,14.1,-8.5,30.17,NNW,338,9.8,9.8,35,0.00,,CLR,0.00,VWS V14.01,2013-03-20 08:46:00,
2013-03-20 03:49:00,14.0,-8.6,30.17,SSW,202,5.2,5.2,35,0.00,,CLR,0.00,VWS V14.01,2013-03-20 08:49:00,
2013-03-20 03:50:00,13.8,-8.2,30.16,North,0,14.2,14.2,36,0.00,,CLR,0.00,VWS V14.01,2013-03-20 08:50:00,
2013-03-20 03:51:00,13.8,-8.8,30.16,North,0,6.6,14.2,35,0.00,,CLR,0.00,VWS V14.01,2013-03-20 08:51:00,
2013-03-20 03:54:00,13.8,-8.8,30.17,NNW,338,9.2,9.2,35,0.00,,CLR,0.00,VWS V14.01,2013-03-20 08:54:00,
2013-03-20 03:56:00,13.4,-9.1,30.16,North,0,7.6,9.8,35,0.00,,CLR,0.00,VWS V14.01,2013-03-20 08:56:00,
2013-03-20 04:01:00,13.6,-9.6,30.16,North,0,18.2,18.2,34,0.00,,CLR,0.00,VWS V14.01,2013-03-20 09:01:00,
2013-03-20 04:02:00,13.6,-9.0,30.16,North,0,0.0,18.2,35,0.00,,CLR,0.00,VWS V14.01,2013-03-20 09:02:00,
2013-03-20 04:03:00,13.4,-9.1,30.16,NNW,338,16.4,16.4,35,0.00,,CLR,0.00,VWS V14.01,2013-03-20 09:03:00,
2013-03-20 04:06:00,13.6,-9.0,30.16,North,0,11.6,11.6,35,0.00,,CLR,0.00,VWS V14.01,2013-03-20 09:06:00,
2013-03-20 04:08:00,13.4,-9.1,30.17,SSW,202,13.8,13.8,35,0.00,,CLR,0.00,VWS V14.01,2013-03-20 09:08:00,
2013-03-20 04:10:00,13.4,-9.1,30.16,NNW,338,6.6,13.8,35,0.00,,CLR,0.00,VWS V14.01,2013-03-20 09:10:00,
2013-03-20 04:13:00,13.2,-9.3,30.17,North,0,9.2,9.2,35,0.00,,CLR,0.00,VWS V14.01,2013-03-20 09:13:00,
2013-03-20 04:16:00,13.2,-9.3,30.16,North,0,12.8,15.2,35,0.00,,CLR,0.00,VWS V14.01,2013-03-20 09:16:00,
2013-03-20 04:18:00,13.2,-9.3,30.16,NNE,22,19.2,19.2,35,0.00,,CLR,0.00,VWS V14.01,2013-03-20 09:18:00,
2013-03-20 04:21:00,13.1,-9.4,30.16,NNW,338,16.0,16.0,35,0.00,,CLR,0.00,VWS V14.01,2013-03-20 09:21:00,
2013-03-20 04:23:00,12.9,-9.6,30.17,SW,225,10.2,15.2,35,0.00,,CLR,0.00,VWS V14.01,2013-03-20 09:23:00,
2013-03-20 04:25:00,13.1,-9.4,30.17,NNW,338,12.4,14.2,35,0.00,,CLR,0.00,VWS V14.01,2013-03-20 09:25:00,
2013-03-20 04:26:00,13.1,-9.4,30.17,North,0,30.8,30.8,35,0.00,,CLR,0.00,VWS V14.01,2013-03-20 09:26:00,
2013-03-20 04:28:00,12.9,-9.6,30.17,NNE,22,14.6,14.6,35,0.00,,CLR,0.00,VWS V14.01,2013-03-20 09:28:00,
2013-03-20 04:31:00,12.9,-10.8,30.17,North,0,4.8,9.2,33,0.00,,CLR,0.00,VWS V14.01,2013-03-20 09:31:00,
2013-03-20 04:33:00,12.9,-10.2,30.17,North,0,7.6,8.0,34,0.00,,CLR,0.00,VWS V14.01,2013-03-20 09:33:00,
2013-03-20 04:34:00,12.9,-10.2,30.17,North,0,17.0,17.0,34,0.00,,CLR,0.00,VWS V14.01,2013-03-20 09:34:00,
2013-03-20 04:36:00,12.7,-10.4,30.16,NNW,338,19.2,19.2,34,0.00,,CLR,0.00,VWS V14.01,2013-03-20 09:36:00,
2013-03-20 04:40:00,12.7,-9.8,30.16,North,0,12.4,12.4,35,0.00,,CLR,0.00,VWS V14.01,2013-03-20 09:40:00,
2013-03-20 04:42:00,12.7,-9.8,30.16,North,0,15.6,15.6,35,0.00,,CLR,0.00,VWS V14.01,2013-03-20 09:42:00,
2013-03-20 04:43:00,12.7,-9.8,30.16,North,0,18.6,18.6,35,0.00,,CLR,0.00,VWS V14.01,2013-03-20 09:43:00,
2013-03-20 04:46:00,12.5,-9.9,30.17,North,0,12.8,12.8,35,0.00,,CLR,0.00,VWS V14.01,2013-03-20 09:46:00,
2013-03-20 04:47:00,12.5,-9.9,30.16,North,0,8.4,8.4,35,0.00,,CLR,0.00,VWS V14.01,2013-03-20 09:47:00,
2013-03-20 04:50:00,12.5,-9.9,30.17,SW,225,4.8,10.2,35,0.00,,CLR,0.00,VWS V14.01,2013-03-20 09:50:00,
2013-03-20 04:52:00,12.5,-9.9,30.17,North,0,17.8,17.8,35,0.00,,CLR,0.00,VWS V14.01,2013-03-20 09:52:00,
2013-03-20 04:56:00,12.3,-10.1,30.17,North,0,13.8,15.2,35,0.00,,CLR,0.00,VWS V14.01,2013-03-20 09:56:00,
2013-03-20 04:59:00,12.3,-10.1,30.17,North,0,6.6,18.2,35,0.00,,CLR,0.00,VWS V14.01,2013-03-20 09:59:00,
2013-03-20 05:00:00,12.3,-10.1,30.17,NNW,338,7.0,7.0,35,0.00,,CLR,0.00,VWS V14.01,2013-03-20 10:00:00,
2013-03-20 05:01:00,12.3,-10.1,30.17,North,0,9.8,9.8,35,0.00,,CLR,0.00,VWS V14.01,2013-03-20 10:01:00,
2013-03-20 05:04:00,12.2,-10.2,30.17,North,0,19.2,19.2,35,0.00,,CLR,0.00,VWS V14.01,2013-03-20 10:04:00,
2013-03-20 05:05:00,12.3,-10.1,30.17,NNW,338,15.2,19.2,35,0.00,,CLR,0.00,VWS V14.01,2013-03-20 10:05:00,
2013-03-20 05:06:00,12.2,-10.2,30.17,NNW,338,13.4,13.4,35,0.00,,CLR,0.00,VWS V14.01,2013-03-20 10:06:00,
2013-03-20 05:11:00,12.2,-9.6,30.17,SW,225,13.4,13.4,36,0.00,,CLR,0.00,VWS V14.01,2013-03-20 10:11:00,
2013-03-20 05:12:00,12.2,-10.2,30.17,NNW,338,5.8,13.4,35,0.00,,CLR,0.00,VWS V14.01,2013-03-20 10:12:00,
2013-03-20 05:16:00,12.2,-9.6,30.17,North,0,11.6,11.6,36,0.00,,CLR,0.00,VWS V14.01,2013-03-20 10:16:00,
2013-03-20 05:18:00,12.0,-9.8,30.17,NNW,338,15.6,16.0,36,0.00,,CLR,0.00,VWS V14.01,2013-03-20 10:18:00,
2013-03-20 05:21:00,11.8,-10.0,30.18,NNW,338,7.6,8.0,36,0.00,,CLR,0.00,VWS V14.01,2013-03-20 10:21:00,
2013-03-20 05:24:00,11.8,-10.0,30.18,NNW,338,16.4,17.4,36,0.00,,CLR,0.00,VWS V14.01,2013-03-20 10:24:00,
2013-03-20 05:26:00,11.8,-10.0,30.18,NNW,338,23.6,23.6,36,0.00,,CLR,0.00,VWS V14.01,2013-03-20 10:26:00,
2013-03-20 05:31:00,11.8,-9.4,30.18,SW,225,8.0,18.2,37,0.00,,CLR,0.00,VWS V14.01,2013-03-20 10:31:00,
2013-03-20 05:33:00,11.8,-9.4,30.18,SSW,202,5.2,14.6,37,0.00,,CLR,0.00,VWS V14.01,2013-03-20 10:33:00,
2013-03-20 05:36:00,11.8,-10.0,30.18,North,0,2.6,2.6,36,0.00,,CLR,0.00,VWS V14.01,2013-03-20 10:36:00,
2013-03-20 05:39:00,11.6,-9.6,30.18,NNW,338,12.8,15.2,37,0.00,,CLR,0.00,VWS V14.01,2013-03-20 10:39:00,
2013-03-20 05:40:00,11.6,-10.2,30.18,North,0,11.0,15.2,36,0.00,,CLR,0.00,VWS V14.01,2013-03-20 10:40:00,
2013-03-20 05:42:00,11.6,-9.6,30.18,SSW,202,11.6,11.6,37,0.00,,CLR,0.00,VWS V14.01,2013-03-20 10:42:00,
2013-03-20 05:45:00,11.6,-9.6,30.18,North,0,5.8,5.8,37,0.00,,CLR,0.00,VWS V14.01,2013-03-20 10:45:00,
2013-03-20 05:47:00,11.8,-9.4,30.18,SSW,202,5.8,5.8,37,0.00,,CLR,0.00,VWS V14.01,2013-03-20 10:47:00,
2013-03-20 05:49:00,11.6,-9.6,30.18,North,0,11.0,11.0,37,0.00,,CLR,0.00,VWS V14.01,2013-03-20 10:49:00,
2013-03-20 05:50:00,11.6,-9.6,30.18,NNW,338,8.0,11.0,37,0.00,,CLR,0.00,VWS V14.01,2013-03-20 10:50:00,
2013-03-20 05:53:00,11.6,-10.2,30.18,NNW,338,9.2,9.2,36,0.00,,CLR,0.00,VWS V14.01,2013-03-20 10:53:00,
2013-03-20 05:56:00,11.4,-9.8,30.18,SSW,202,11.0,11.6,37,0.00,,CLR,0.00,VWS V14.01,2013-03-20 10:56:00,
2013-03-20 05:58:00,11.3,-9.9,30.18,NNW,338,5.8,5.8,37,0.00,,CLR,0.00,VWS V14.01,2013-03-20 10:58:00,
2013-03-20 06:02:00,11.4,-9.8,30.19,NNW,338,15.2,15.2,37,0.00,,CLR,0.00,VWS V14.01,2013-03-20 11:02:00,
2013-03-20 06:03:00,11.4,-9.3,30.19,SSW,202,3.4,3.4,38,0.00,,CLR,0.00,VWS V14.01,2013-03-20 11:03:00,
2013-03-20 06:04:00,11.4,-9.8,30.19,North,0,7.0,7.0,37,0.00,,CLR,0.00,VWS V14.01,2013-03-20 11:04:00,
2013-03-20 06:08:00,11.3,-9.9,30.19,NNW,338,18.6,18.6,37,0.00,,CLR,0.00,VWS V14.01,2013-03-20 11:08:00,
2013-03-20 06:11:00,11.3,-9.9,30.19,North,0,10.2,12.4,37,0.00,,CLR,0.00,VWS V14.01,2013-03-20 11:11:00,
2013-03-20 06:12:00,11.3,-9.9,30.19,North,0,4.8,4.8,37,0.00,,CLR,0.00,VWS V14.01,2013-03-20 11:12:00,
2013-03-20 06:15:00,11.3,-9.9,30.19,NNW,338,12.4,14.6,37,0.00,,CLR,0.00,VWS V14.01,2013-03-20 11:15:00,
2013-03-20 06:16:00,11.3,-9.9,30.19,North,0,4.0,4.0,37,0.00,,CLR,0.00,VWS V14.01,2013-03-20 11:16:00,
2013-03-20 06:18:00,11.3,-9.9,30.19,NNW,338,11.6,11.6,37,0.00,,CLR,0.00,VWS V14.01,2013-03-20 11:18:00,
2013-03-20 06:21:00,11.3,-9.9,30.19,NNW,338,4.4,16.0,37,0.00,,CLR,0.00,VWS V14.01,2013-03-20 11:21:00,
2013-03-20 06:22:00,11.3,-9.9,30.19,NNW,338,16.0,16.0,37,0.00,,CLR,0.00,VWS V14.01,2013-03-20 11:22:00,
2013-03-20 06:23:00,11.3,-9.9,30.19,North,0,0.0,16.0,37,0.00,,CLR,0.00,VWS V14.01,2013-03-20 11:23:00,
2013-03-20 06:24:00,11.3,-9.9,30.19,NNW,338,8.0,16.0,37,0.00,,CLR,0.00,VWS V14.01,2013-03-20 11:24:00,
2013-03-20 06:26:00,11.3,-9.9,30.19,SSW,202,7.0,7.0,37,0.00,,CLR,0.00,VWS V14.01,2013-03-20 11:26:00,
2013-03-20 06:28:00,11.3,-9.9,30.19,North,0,14.6,14.6,37,0.00,,CLR,0.00,VWS V14.01,2013-03-20 11:28:00,
2013-03-20 06:29:00,11.3,-9.9,30.19,North,0,8.0,14.6,37,0.00,,CLR,0.00,VWS V14.01,2013-03-20 11:29:00,
2013-03-20 06:32:00,11.3,-9.9,30.20,North,0,6.6,9.8,37,0.00,,CLR,0.00,VWS V14.01,2013-03-20 11:32:00,
2013-03-20 06:34:00,11.1,-10.1,30.20,North,0,4.4,12.4,37,0.00,,CLR,0.00,VWS V14.01,2013-03-20 11:34:00,
2013-03-20 06:36:00,11.1,-10.1,30.19,North,0,18.2,18.2,37,0.00,,CLR,0.00,VWS V14.01,2013-03-20 11:36:00,
2013-03-20 06:37:00,11.1,-10.1,30.19,North,0,18.2,18.2,37,0.00,,CLR,0.00,VWS V14.01,2013-03-20 11:37:00,
2013-03-20 06:38:00,11.3,-9.9,30.19,NNW,338,10.2,18.2,37,0.00,,CLR,0.00,VWS V14.01,2013-03-20 11:38:00,
2013-03-20 06:40:00,11.3,-9.9,30.19,North,0,7.0,10.2,37,0.00,,CLR,0.00,VWS V14.01,2013-03-20 11:40:00,
2013-03-20 06:42:00,11.1,-10.1,30.19,NNW,338,28.6,28.6,37,0.00,,CLR,0.00,VWS V14.01,2013-03-20 11:42:00,
2013-03-20 06:43:00,11.1,-10.1,30.19,NNW,338,28.6,28.6,37,0.00,,CLR,0.00,VWS V14.01,2013-03-20 11:43:00,
2013-03-20 06:44:00,11.1,-10.1,30.19,North,0,1.6,28.6,37,0.00,,CLR,0.00,VWS V14.01,2013-03-20 11:44:00,
2013-03-20 06:48:00,11.1,-10.1,30.20,NNW,338,5.8,16.4,37,0.00,,CLR,0.00,VWS V14.01,2013-03-20 11:48:00,
2013-03-20 06:50:00,11.1,-10.1,30.20,NNW,338,11.0,11.0,37,0.00,,CLR,0.00,VWS V14.01,2013-03-20 11:50:00,
2013-03-20 06:54:00,11.1,-10.6,30.19,NNW,338,15.6,15.6,36,0.00,,CLR,0.00,VWS V14.01,2013-03-20 11:54:00,
2013-03-20 06:56:00,11.1,-10.1,30.19,North,0,21.0,21.0,37,0.00,,CLR,0.00,VWS V14.01,2013-03-20 11:56:00,
2013-03-20 06:57:00,11.1,-10.1,30.20,SSW,202,8.8,8.8,37,0.00,,CLR,0.00,VWS V14.01,2013-03-20 11:57:00,
2013-03-20 06:59:00,11.1,-10.1,30.19,North,0,12.8,12.8,37,0.00,,CLR,0.00,VWS V14.01,2013-03-20 11:59:00,
2013-03-20 07:00:00,11.1,-10.1,30.19,NNW,338,6.6,17.4,37,0.00,,CLR,0.00,VWS V14.01,2013-03-20 12:00:00,
2013-03-20 07:03:00,11.1,-10.1,30.19,NNW,338,17.0,17.0,37,0.00,,CLR,0.00,VWS V14.01,2013-03-20 12:03:00,
2013-03-20 07:04:00,10.7,-10.4,30.19,SSW,202,11.0,17.0,37,0.00,,CLR,0.00,VWS V14.01,2013-03-20 12:04:00,
2013-03-20 07:08:00,10.7,-10.4,30.19,SW,225,8.0,16.4,37,0.00,,CLR,0.00,VWS V14.01,2013-03-20 12:08:00,
2013-03-20 07:09:00,10.9,-10.3,30.19,NNW,338,3.4,8.0,37,0.00,,CLR,0.00,VWS V14.01,2013-03-20 12:09:00,
2013-03-20 07:10:00,10.7,-10.4,30.20,NNW,338,8.4,8.4,37,0.00,,CLR,0.00,VWS V14.01,2013-03-20 12:10:00,
2013-03-20 07:16:00,10.7,-10.4,30.20,North,0,6.6,6.6,37,0.00,,CLR,0.00,VWS V14.01,2013-03-20 12:16:00,
2013-03-20 07:17:00,10.9,-10.3,30.20,North,0,8.8,8.8,37,0.00,,CLR,0.00,VWS V14.01,2013-03-20 12:17:00,
2013-03-20 07:18:00,10.7,-10.4,30.20,SSW,202,6.6,8.8,37,0.00,,CLR,0.00,VWS V14.01,2013-03-20 12:18:00,
2013-03-20 07:19:00,10.7,-10.4,30.20,SSW,202,6.6,6.6,37,0.00,,CLR,0.00,VWS V14.01,2013-03-20 12:19:00,
2013-03-20 07:21:00,10.7,-10.4,30.20,NNE,22,6.6,6.6,37,0.00,,CLR,0.00,VWS V14.01,2013-03-20 12:21:00,
2013-03-20 07:22:00,10.7,-11.0,30.20,North,0,11.0,11.0,36,0.00,,CLR,0.00,VWS V14.01,2013-03-20 12:22:00,
2013-03-20 07:25:00,10.9,-10.3,30.20,NE,45,4.4,4.4,37,0.00,,CLR,0.00,VWS V14.01,2013-03-20 12:25:00,
2013-03-20 07:28:00,10.7,-11.0,30.20,North,0,12.0,12.0,36,0.00,,CLR,0.00,VWS V14.01,2013-03-20 12:28:00,
2013-03-20 07:29:00,10.7,-11.0,30.20,North,0,7.6,7.6,36,0.00,,CLR,0.00,VWS V14.01,2013-03-20 12:29:00,
2013-03-20 07:31:00,10.7,-11.0,30.20,NNW,338,17.4,17.4,36,0.00,,CLR,0.00,VWS V14.01,2013-03-20 12:31:00,
2013-03-20 07:34:00,10.7,-11.0,30.20,NNW,338,8.8,10.6,36,0.00,,CLR,0.00,VWS V14.01,2013-03-20 12:34:00,
2013-03-20 07:38:00,10.7,-11.0,30.20,NNW,338,17.4,17.4,36,0.00,,CLR,0.00,VWS V14.01,2013-03-20 12:38:00,
2013-03-20 07:40:00,10.7,-11.0,30.20,SSW,202,9.2,17.4,36,0.00,,CLR,0.00,VWS V14.01,2013-03-20 12:40:00,
2013-03-20 07:42:00,11.1,-10.6,30.20,NNW,338,7.6,7.6,36,0.00,,CLR,0.00,VWS V14.01,2013-03-20 12:42:00,
2013-03-20 07:44:00,11.1,-11.2,30.20,North,0,6.2,7.6,35,0.00,,CLR,0.00,VWS V14.01,2013-03-20 12:44:00,
2013-03-20 07:48:00,11.1,-11.2,30.20,North,0,4.8,4.8,35,0.00,,CLR,0.00,VWS V14.01,2013-03-20 12:48:00,
2013-03-20 07:49:00,11.1,-11.2,30.20,North,0,16.4,16.4,35,0.00,,CLR,0.00,VWS V14.01,2013-03-20 12:49:00,
2013-03-20 07:50:00,11.1,-11.8,30.20,NNW,338,14.2,14.2,34,0.00,,CLR,0.00,VWS V14.01,2013-03-20 12:50:00,
2013-03-20 07:54:00,11.1,-11.8,30.20,North,0,6.2,7.0,34,0.00,,CLR,0.00,VWS V14.01,2013-03-20 12:54:00,
2013-03-20 07:57:00,11.3,-11.6,30.19,SSW,202,9.2,12.8,34,0.00,,CLR,0.00,VWS V14.01,2013-03-20 12:57:00,
2013-03-20 07:58:00,11.3,-11.6,30.20,NNW,338,8.4,12.8,34,0.00,,CLR,0.00,VWS V14.01,2013-03-20 12:58:00,
2013-03-20 08:02:00,11.3,-11.6,30.20,North,0,8.0,12.0,33,0.00,,CLR,0.00,VWS V14.01,2013-03-20 13:02:00,
2013-03-20 08:06:00,11.4,-11.6,30.20,SSW,202,12.4,12.4,33,0.00,,CLR,0.00,VWS V14.01,2013-03-20 13:06:00,
2013-03-20 08:07:00,11.4,-11.6,30.20,North,0,16.0,16.0,32,0.00,,CLR,0.00,VWS V14.01,2013-03-20 13:07:00,
2013-03-20 08:08:00,11.4,-11.6,30.20,NNW,338,13.8,16.0,32,0.00,,CLR,0.00,VWS V14.01,2013-03-20 13:08:00,
2013-03-20 08:13:00,11.3,-11.6,30.20,WNW,292,19.2,19.2,31,0.00,,CLR,0.00,VWS V14.01,2013-03-20 13:13:00,
2013-03-20 08:14:00,11.4,-11.6,30.20,North,0,7.0,7.0,31,0.00,,CLR,0.00,VWS V14.01,2013-03-20 13:14:00,
2013-03-20 08:16:00,11.6,-11.6,30.20,SSW,202,11.6,11.6,30,0.00,,CLR,0.00,VWS V14.01,2013-03-20 13:16:00,
2013-03-20 08:18:00,11.6,-11.6,30.20,North,0,7.0,7.0,30,0.00,,CLR,0.00,VWS V14.01,2013-03-20 13:18:00,
2013-03-20 08:19:00,11.8,-11.6,30.20,North,0,9.8,9.8,30,0.00,,CLR,0.00,VWS V14.01,2013-03-20 13:19:00,
2013-03-20 08:22:00,11.6,-11.6,30.21,NNW,338,21.4,24.0,29,0.00,,CLR,0.00,VWS V14.01,2013-03-20 13:22:00,
2013-03-20 08:23:00,11.6,-11.6,30.21,NNW,338,20.4,21.4,27,0.00,,CLR,0.00,VWS V14.01,2013-03-20 13:23:00,
2013-03-20 08:24:00,11.6,-11.6,30.21,North,0,11.0,11.0,27,0.00,,CLR,0.00,VWS V14.01,2013-03-20 13:24:00,
2013-03-20 08:28:00,11.6,-11.6,30.21,North,0,5.8,14.6,26,0.00,,CLR,0.00,VWS V14.01,2013-03-20 13:28:00,
2013-03-20 08:30:00,11.8,-11.6,30.21,North,0,17.4,17.4,25,0.00,,CLR,0.00,VWS V14.01,2013-03-20 13:30:00,
2013-03-20 08:31:00,11.6,-11.6,30.20,NNW,338,16.4,16.4,20,0.00,,CLR,0.00,VWS V14.01,2013-03-20 13:31:00,
2013-03-20 08:34:00,11.8,-11.6,30.21,NNW,338,7.6,23.6,24,0.00,,CLR,0.00,VWS V14.01,2013-03-20 13:34:00,
2013-03-20 08:36:00,11.8,-11.6,30.21,NNW,338,5.2,7.6,23,0.00,,CLR,0.00,VWS V14.01,2013-03-20 13:36:00,
2013-03-20 08:39:00,11.8,-11.6,30.20,NNW,338,13.8,13.8,19,0.00,,CLR,0.00,VWS V14.01,2013-03-20 13:39:00,
2013-03-20 08:40:00,11.8,-11.6,30.20,NNE,22,6.2,13.8,21,0.00,,CLR,0.00,VWS V14.01,2013-03-20 13:40:00,
2013-03-20 08:43:00,12.3,-11.6,30.20,SSW,202,15.6,15.6,21,0.00,,CLR,0.00,VWS V14.01,2013-03-20 13:43:00,
2013-03-20 08:44:00,12.3,-11.6,30.20,NNW,338,4.8,15.6,21,0.00,,CLR,0.00,VWS V14.01,2013-03-20 13:44:00,
2013-03-20 08:46:00,12.5,-11.6,30.20,SSW,202,14.6,14.6,22,0.00,,CLR,0.00,VWS V14.01,2013-03-20 13:46:00,
2013-03-20 08:48:00,12.5,-11.6,30.20,NNW,338,16.0,16.0,22,0.00,,CLR,0.00,VWS V14.01,2013-03-20 13:48:00,
2013-03-20 08:52:00,12.3,-11.6,30.20,SSW,202,10.2,21.4,19,0.00,,CLR,0.00,VWS V14.01,2013-03-20 13:52:00,
2013-03-20 08:53:00,12.3,-11.6,30.20,NNW,338,10.6,10.6,19,0.00,,CLR,0.00,VWS V14.01,2013-03-20 13:53:00,
2013-03-20 08:54:00,12.7,-11.6,30.20,NNW,338,10.2,10.6,19,0.00,,CLR,0.00,VWS V14.01,2013-03-20 13:54:00,
2013-03-20 08:57:00,12.9,-11.6,30.20,North,0,6.2,6.2,21,0.00,,CLR,0.00,VWS V14.01,2013-03-20 13:57:00,
2013-03-20 08:58:00,13.1,-11.6,30.20,North,0,10.6,10.6,19,0.00,,CLR,0.00,VWS V14.01,2013-03-20 13:58:00,
2013-03-20 09:02:00,13.2,-11.6,30.20,North,0,19.6,19.6,20,0.00,,CLR,0.00,VWS V14.01,2013-03-20 14:02:00,
2013-03-20 09:03:00,13.2,-11.6,30.20,NNE,22,10.6,19.6,20,0.00,,CLR,0.00,VWS V14.01,2013-03-20 14:03:00,
2013-03-20 09:04:00,13.4,-11.6,30.21,North,0,17.4,19.6,20,0.00,,CLR,0.00,VWS V14.01,2013-03-20 14:04:00,
2013-03-20 09:07:00,13.4,-11.6,30.20,North,0,5.2,7.6,19,0.00,,CLR,0.00,VWS V14.01,2013-03-20 14:07:00,
2013-03-20 09:09:00,13.6,-11.6,30.20,SSW,202,21.0,21.0,19,0.00,,CLR,0.00,VWS V14.01,2013-03-20 14:09:00,
2013-03-20 09:11:00,13.6,-11.6,30.20,SW,225,2.6,9.2,19,0.00,,CLR,0.00,VWS V14.01,2013-03-20 14:11:00,
2013-03-20 09:13:00,14.0,-11.6,30.20,NNW,338,26.8,26.8,19,0.00,,CLR,0.00,VWS V14.01,2013-03-20 14:13:00,
2013-03-20 09:14:00,13.8,-11.6,30.20,SW,225,12.8,26.8,19,0.00,,CLR,0.00,VWS V14.01,2013-03-20 14:14:00,
2013-03-20 09:15:00,14.1,-11.6,30.20,SW,225,4.8,12.8,19,0.00,,CLR,0.00,VWS V14.01,2013-03-20 14:15:00,
2013-03-20 09:18:00,13.8,-11.6,30.20,North,0,12.0,12.0,19,0.00,,CLR,0.00,VWS V14.01,2013-03-20 14:18:00,
2013-03-20 09:19:00,14.1,-11.6,30.20,NNW,338,19.6,19.6,19,0.00,,CLR,0.00,VWS V14.01,2013-03-20 14:19:00,
2013-03-20 09:22:00,14.0,-11.6,30.20,NNW,338,4.8,4.8,19,0.00,,CLR,0.00,VWS V14.01,2013-03-20 14:22:00,
2013-03-20 09:23:00,14.1,-11.6,30.20,NNW,338,17.0,17.0,19,0.00,,CLR,0.00,VWS V14.01,2013-03-20 14:23:00,
2013-03-20 09:26:00,14.3,-11.6,30.20,SSW,202,10.6,10.6,19,0.00,,CLR,0.00,VWS V14.01,2013-03-20 14:26:00,
2013-03-20 09:27:00,14.3,-11.6,30.20,North,0,17.0,17.0,19,0.00,,CLR,0.00,VWS V14.01,2013-03-20 14:27:00,
2013-03-20 09:28:00,14.1,-11.6,30.20,NNW,338,14.2,14.2,19,0.00,,CLR,0.00,VWS V14.01,2013-03-20 14:28:00,
2013-03-20 09:33:00,14.3,-11.6,30.20,North,0,13.8,13.8,19,0.00,,CLR,0.00,VWS V14.01,2013-03-20 14:33:00,
2013-03-20 09:36:00,14.3,-11.6,30.20,North,0,21.4,21.4,19,0.00,,CLR,0.00,VWS V14.01,2013-03-20 14:36:00,
2013-03-20 09:38:00,14.5,-11.6,30.20,NNW,338,29.4,29.4,19,0.00,,CLR,0.00,VWS V14.01,2013-03-20 14:38:00,
2013-03-20 09:42:00,14.3,-11.6,30.20,NNW,338,21.4,21.4,19,0.00,,CLR,0.00,VWS V14.01,2013-03-20 14:42:00,
2013-03-20 09:43:00,14.3,-11.6,30.20,NNW,338,9.8,9.8,19,0.00,,CLR,0.00,VWS V14.01,2013-03-20 14:43:00,
2013-03-20 09:47:00,14.5,-11.6,30.19,NNW,338,26.2,26.2,19,0.00,,CLR,0.00,VWS V14.01,2013-03-20 14:47:00,
2013-03-20 09:48:00,14.7,-11.6,30.19,North,0,10.6,26.2,19,0.00,,CLR,0.00,VWS V14.01,2013-03-20 14:48:00,
2013-03-20 09:49:00,14.5,-11.6,30.20,SW,225,5.2,5.2,19,0.00,,CLR,0.00,VWS V14.01,2013-03-20 14:49:00,
2013-03-20 09:53:00,14.7,-11.6,30.20,NNW,338,14.6,14.6,19,0.00,,CLR,0.00,VWS V14.01,2013-03-20 14:53:00,
2013-03-20 09:54:00,14.9,-11.6,30.20,North,0,7.0,14.6,19,0.00,,CLR,0.00,VWS V14.01,2013-03-20 14:54:00,
2013-03-20 09:55:00,14.9,-11.6,30.20,North,0,7.0,7.0,19,0.00,,CLR,0.00,VWS V14.01,2013-03-20 14:55:00,
2013-03-20 09:58:00,15.0,-11.6,30.19,North,0,0.0,18.6,19,0.00,,CLR,0.00,VWS V14.01,2013-03-20 14:58:00,
2013-03-20 09:59:00,15.2,-11.6,30.19,SSW,202,8.4,8.4,19,0.00,,CLR,0.00,VWS V14.01,2013-03-20 14:59:00,
2013-03-20 10:00:00,15.2,-11.6,30.19,SSW,202,7.0,8.4,19,0.00,,CLR,0.00,VWS V14.01,2013-03-20 15:00:00,
2013-03-20 10:03:00,15.4,-11.6,30.19,NNW,338,6.2,14.2,19,0.00,,CLR,0.00,VWS V14.01,2013-03-20 15:03:00,
2013-03-20 10:04:00,15.4,-11.6,30.19,NNW,338,18.6,18.6,19,0.00,,CLR,0.00,VWS V14.01,2013-03-20 15:04:00,
2013-03-20 10:05:00,15.4,-11.6,30.19,West,270,8.0,18.6,19,0.00,,CLR,0.00,VWS V14.01,2013-03-20 15:05:00,
2013-03-20 10:06:00,15.4,-11.6,30.19,NNE,22,7.6,18.6,19,0.00,,CLR,0.00,VWS V14.01,2013-03-20 15:06:00,
2013-03-20 10:10:00,15.4,-11.6,30.19,NNW,338,15.6,15.6,19,0.00,,CLR,0.00,VWS V14.01,2013-03-20 15:10:00,
2013-03-20 10:12:00,15.4,-11.6,30.19,North,0,8.0,15.6,19,0.00,,CLR,0.00,VWS V14.01,2013-03-20 15:12:00,
2013-03-20 10:18:00,15.8,-11.6,30.19,SSW,202,9.2,9.2,19,0.00,,CLR,0.00,VWS V14.01,2013-03-20 15:18:00,
2013-03-20 10:19:00,15.8,-11.6,30.19,North,0,7.0,7.0,19,0.00,,CLR,0.00,VWS V14.01,2013-03-20 15:19:00,
2013-03-20 10:20:00,15.9,-11.6,30.19,North,0,7.6,8.8,19,0.00,,CLR,0.00,VWS V14.01,2013-03-20 15:20:00,
2013-03-20 10:22:00,15.6,-11.6,30.19,SW,225,0.0,15.6,19,0.00,,CLR,0.00,VWS V14.01,2013-03-20 15:22:00,
2013-03-20 10:23:00,15.6,-11.6,30.19,SW,225,0.0,0.0,19,0.00,,CLR,0.00,VWS V14.01,2013-03-20 15:23:00,
2013-03-20 10:25:00,15.8,-11.6,30.19,NNW,338,2.6,2.6,19,0.00,,CLR,0.00,VWS V14.01,2013-03-20 15:25:00,
2013-03-20 10:26:00,15.6,-11.6,30.19,NNW,338,11.6,11.6,19,0.00,,CLR,0.00,VWS V14.01,2013-03-20 15:26:00,
2013-03-20 10:28:00,15.9,-11.6,30.19,SSW,202,17.8,17.8,19,0.00,,CLR,0.00,VWS V14.01,2013-03-20 15:28:00,
2013-03-20 10:31:00,15.9,-11.6,30.19,North,0,13.8,13.8,19,0.00,,CLR,0.00,VWS V14.01,2013-03-20 15:31:00,
2013-03-20 10:34:00,16.1,-11.6,30.19,North,0,9.2,10.6,19,0.00,,CLR,0.00,VWS V14.01,2013-03-20 15:34:00,
2013-03-20 10:36:00,16.3,-11.6,30.19,North,0,15.2,15.2,19,0.00,,CLR,0.00,VWS V14.01,2013-03-20 15:36:00,
2013-03-20 10:39:00,16.1,-11.6,30.19,SSW,202,16.0,16.0,19,0.00,,CLR,0.00,VWS V14.01,2013-03-20 15:39:00,
2013-03-20 10:41:00,16.3,-11.6,30.19,NNW,338,15.2,19.6,19,0.00,,CLR,0.00,VWS V14.01,2013-03-20 15:41:00,
2013-03-20 10:42:00,16.3,-11.6,30.19,NNW,338,6.2,19.6,19,0.00,,CLR,0.00,VWS V14.01,2013-03-20 15:42:00,
2013-03-20 10:45:00,16.5,-11.6,30.19,South,180,5.8,13.4,19,0.00,,CLR,0.00,VWS V14.01,2013-03-20 15:45:00,
2013-03-20 10:47:00,16.5,-11.6,30.19,NNW,338,33.0,33.0,19,0.00,,CLR,0.00,VWS V14.01,2013-03-20 15:47:00,
2013-03-20 10:48:00,16.5,-11.6,30.19,North,0,0.0,33.0,19,0.00,,CLR,0.00,VWS V14.01,2013-03-20 15:48:00,
2013-03-20 10:52:00,16.3,-11.6,30.19,North,0,3.0,3.0,19,0.00,,CLR,0.00,VWS V14.01,2013-03-20 15:52:00,
2013-03-20 10:53:00,16.3,-11.6,30.19,NNW,338,8.4,8.4,19,0.00,,CLR,0.00,VWS V14.01,2013-03-20 15:53:00,
2013-03-20 10:56:00,16.7,-11.6,30.19,NNW,338,13.4,16.4,19,0.00,,CLR,0.00,VWS V14.01,2013-03-20 15:56:00,
2013-03-20 10:57:00,16.7,-11.6,30.19,NNW,338,13.4,13.4,19,0.00,,CLR,0.00,VWS V14.01,2013-03-20 15:57:00,
2013-03-20 11:02:00,17.2,-11.6,30.19,SSW,202,5.2,11.0,19,0.00,,CLR,0.00,VWS V14.01,2013-03-20 16:02:00,
2013-03-20 11:03:00,17.2,-11.6,30.19,SW,225,13.4,13.4,19,0.00,,CLR,0.00,VWS V14.01,2013-03-20 16:03:00,
2013-03-20 11:04:00,17.2,-11.6,30.19,West,270,12.4,13.4,19,0.00,,CLR,0.00,VWS V14.01,2013-03-20 16:04:00,
2013-03-20 11:07:00,17.2,-11.6,30.19,NNW,338,11.0,11.0,19,0.00,,CLR,0.00,VWS V14.01,2013-03-20 16:07:00,
2013-03-20 11:08:00,17.2,-11.6,30.19,NNW,338,14.2,14.2,19,0.00,,CLR,0.00,VWS V14.01,2013-03-20 16:08:00,
2013-03-20 11:10:00,17.2,-11.6,30.19,North,0,22.2,22.2,19,0.00,,CLR,0.00,VWS V14.01,2013-03-20 16:10:00,
2013-03-20 11:12:00,17.2,-11.6,30.19,North,0,17.0,17.0,19,0.00,,CLR,0.00,VWS V14.01,2013-03-20 16:12:00,
2013-03-20 11:14:00,17.4,-11.6,30.19,North,0,23.6,23.6,19,0.00,,CLR,0.00,VWS V14.01,2013-03-20 16:14:00,
2013-03-20 11:16:00,17.6,-11.6,30.19,NW,315,13.4,13.4,19,0.00,,CLR,0.00,VWS V14.01,2013-03-20 16:16:00,
2013-03-20 11:17:00,17.7,-11.6,30.19,NNW,338,20.0,20.0,19,0.00,,CLR,0.00,VWS V14.01,2013-03-20 16:17:00,
2013-03-20 11:21:00,18.1,-11.6,30.19,North,0,7.6,12.4,19,0.00,,CLR,0.00,VWS V14.01,2013-03-20 16:21:00,
2013-03-20 11:22:00,18.1,-11.6,30.19,North,0,20.4,20.4,19,0.00,,CLR,0.00,VWS V14.01,2013-03-20 16:22:00,
2013-03-20 11:27:00,19.0,-11.6,30.19,North,0,16.0,16.0,19,0.00,,CLR,0.00,VWS V14.01,2013-03-20 16:27:00,
2013-03-20 11:28:00,19.0,-11.6,30.19,West,270,7.6,16.0,19,0.00,,CLR,0.00,VWS V14.01,2013-03-20 16:28:00,
2013-03-20 11:30:00,19.0,-11.6,30.19,West,270,5.8,5.8,19,0.00,,CLR,0.00,VWS V14.01,2013-03-20 16:30:00,
2013-03-20 11:33:00,19.0,-11.6,30.19,NNW,338,8.8,14.6,19,0.00,,CLR,0.00,VWS V14.01,2013-03-20 16:33:00,
2013-03-20 11:36:00,19.2,-11.6,30.19,SSW,202,8.8,8.8,19,0.00,,CLR,0.00,VWS V14.01,2013-03-20 16:36:00,
2013-03-20 11:40:00,19.5,-11.6,30.19,NNW,338,15.6,17.0,19,0.00,,CLR,0.00,VWS V14.01,2013-03-20 16:40:00,
2013-03-20 11:43:00,19.2,-11.6,30.18,West,270,7.0,7.0,19,0.00,,CLR,0.00,VWS V14.01,2013-03-20 16:43:00,
2013-03-20 11:44:00,19.2,-11.6,30.18,NNW,338,22.2,22.2,19,0.00,,CLR,0.00,VWS V14.01,2013-03-20 16:44:00,
2013-03-20 11:46:00,19.5,-11.6,30.18,North,0,10.6,10.6,19,0.00,,CLR,0.00,VWS V14.01,2013-03-20 16:46:00,
2013-03-20 11:48:00,19.5,-11.6,30.18,North,0,0.0,18.6,19,0.00,,CLR,0.00,VWS V14.01,2013-03-20 16:48:00,
2013-03-20 11:49:00,19.5,-11.6,30.18,North,0,0.0,0.0,19,0.00,,CLR,0.00,VWS V14.01,2013-03-20 16:49:00,
2013-03-20 11:50:00,19.7,-11.6,30.18,NNW,338,11.0,23.2,19,0.00,,CLR,0.00,VWS V14.01,2013-03-20 16:50:00,
2013-03-20 11:52:00,19.4,-11.6,30.18,West,270,16.4,16.4,19,0.00,,CLR,0.00,VWS V14.01,2013-03-20 16:52:00,
2013-03-20 11:54:00,19.5,-11.6,30.18,NNW,338,7.6,16.4,19,0.00,,CLR,0.00,VWS V14.01,2013-03-20 16:54:00,
2013-03-20 11:55:00,19.5,-11.6,30.18,North,0,2.6,7.6,19,0.00,,CLR,0.00,VWS V14.01,2013-03-20 16:55:00,
2013-03-20 11:59:00,20.1,-11.6,30.17,West,270,14.6,16.4,19,0.00,,CLR,0.00,VWS V14.01,2013-03-20 16:59:00,
2013-03-20 12:01:00,20.3,-11.6,30.18,NNW,338,11.6,11.6,19,0.00,,CLR,0.00,VWS V14.01,2013-03-20 17:01:00,
2013-03-20 12:02:00,20.3,-11.6,30.18,WSW,248,24.6,24.6,19,0.00,,CLR,0.00,VWS V14.01,2013-03-20 17:02:00,
2013-03-20 12:07:00,20.3,-11.6,30.18,North,0,8.4,26.2,19,0.00,,CLR,0.00,VWS V14.01,2013-03-20 17:07:00,
2013-03-20 12:08:00,20.3,-11.6,30.18,NNW,338,18.2,26.2,19,0.00,,CLR,0.00,VWS V14.01,2013-03-20 17:08:00,
2013-03-20 12:12:00,20.1,-11.6,30.19,SW,225,19.2,19.2,19,0.00,,CLR,0.00,VWS V14.01,2013-03-20 17:12:00,
2013-03-20 12:13:00,20.3,-11.6,30.18,SW,225,8.4,19.2,19,0.00,,CLR,0.00,VWS V14.01,2013-03-20 17:13:00,
2013-03-20 12:17:00,20.8,-11.6,30.18,SSW,202,17.4,17.4,19,0.00,,CLR,0.00,VWS V14.01,2013-03-20 17:17:00,
2013-03-20 12:18:00,20.8,-11.6,30.18,North,0,13.4,13.4,19,0.00,,CLR,0.00,VWS V14.01,2013-03-20 17:18:00,
2013-03-20 12:19:00,20.8,-11.6,30.18,SW,225,9.2,13.4,19,0.00,,CLR,0.00,VWS V14.01,2013-03-20 17:19:00,
2013-03-20 12:23:00,20.6,-11.6,30.18,North,0,4.8,17.0,19,0.00,,CLR,0.00,VWS V14.01,2013-03-20 17:23:00,
2013-03-20 12:24:00,20.6,-11.6,30.18,North,0,7.6,17.0,19,0.00,,CLR,0.00,VWS V14.01,2013-03-20 17:24:00,
2013-03-20 12:25:00,21.2,-11.6,30.18,NNW,338,0.0,7.6,19,0.00,,CLR,0.00,VWS V14.01,2013-03-20 17:25:00,
2013-03-20 12:28:00,21.3,-11.6,30.17,WNW,292,11.6,11.6,19,0.00,,CLR,0.00,VWS V14.01,2013-03-20 17:28:00,
2013-03-20 12:29:00,21.7,-11.6,30.17,NNW,338,6.2,11.6,19,0.00,,CLR,0.00,VWS V14.01,2013-03-20 17:29:00,
2013-03-20 12:30:00,22.1,-11.6,30.18,NNW,338,9.2,11.6,19,0.00,,CLR,0.00,VWS V14.01,2013-03-20 17:30:00,
2013-03-20 12:32:00,21.9,-11.6,30.18,NNE,22,2.2,9.2,19,0.00,,CLR,0.00,VWS V14.01,2013-03-20 17:32:00,
2013-03-20 12:36:00,22.1,-11.6,30.18,NE,45,5.8,9.8,19,0.00,,CLR,0.00,VWS V14.01,2013-03-20 17:36:00,
2013-03-20 12:37:00,21.7,-11.6,30.18,WNW,292,15.2,15.2,19,0.00,,CLR,0.00,VWS V14.01,2013-03-20 17:37:00,
2013-03-20 12:40:00,21.3,-11.6,30.18,West,270,8.4,25.8,19,0.00,,CLR,0.00,VWS V14.01,2013-03-20 17:40:00,
2013-03-20 12:42:00,21.3,-11.6,30.18,West,270,10.2,10.2,19,0.00,,CLR,0.00,VWS V14.01,2013-03-20 17:42:00,
2013-03-20 12:43:00,21.3,-11.6,30.18,SW,225,0.0,0.0,19,0.00,,CLR,0.00,VWS V14.01,2013-03-20 17:43:00,
2013-03-20 12:46:00,21.7,-11.6,30.17,WNW,292,5.8,14.2,19,0.00,,CLR,0.00,VWS V14.01,2013-03-20 17:46:00,
2013-03-20 12:47:00,21.7,-11.6,30.17,WNW,292,5.8,5.8,19,0.00,,CLR,0.00,VWS V14.01,2013-03-20 17:47:00,
2013-03-20 12:48:00,21.9,-11.6,30.17,North,0,3.4,5.8,19,0.00,,CLR,0.00,VWS V14.01,2013-03-20 17:48:00,
2013-03-20 12:52:00,21.9,-11.6,30.17,NNE,22,8.0,12.0,19,0.00,,CLR,0.00,VWS V14.01,2013-03-20 17:52:00,
2013-03-20 12:53:00,21.9,-11.6,30.17,NNW,338,8.4,8.4,19,0.00,,CLR,0.00,VWS V14.01,2013-03-20 17:53:00,
2013-03-20 12:58:00,22.1,-11.6,30.17,West,270,20.4,20.4,19,0.00,,CLR,0.00,VWS V14.01,2013-03-20 17:58:00,
2013-03-20 13:00:00,22.1,-11.6,30.17,WSW,248,1.2,11.6,19,0.00,,CLR,0.00,VWS V14.01,2013-03-20 18:00:00,
2013-03-20 13:04:00,22.6,-11.6,30.17,West,270,4.8,14.2,19,0.00,,CLR,0.00,VWS V14.01,2013-03-20 18:04:00,
2013-03-20 13:05:00,23.0,-11.6,30.17,North,0,8.8,8.8,19,0.00,,CLR,0.00,VWS V14.01,2013-03-20 18:05:00,
2013-03-20 13:09:00,22.4,-11.6,30.16,WNW,292,14.2,14.2,19,0.00,,CLR,0.00,VWS V14.01,2013-03-20 18:09:00,
2013-03-20 13:10:00,22.4,-11.6,30.16,West,270,9.2,14.2,19,0.00,,CLR,0.00,VWS V14.01,2013-03-20 18:10:00,
2013-03-20 13:12:00,22.2,-11.6,30.16,WNW,292,12.8,12.8,19,0.00,,CLR,0.00,VWS V14.01,2013-03-20 18:12:00,
2013-03-20 13:15:00,22.2,-11.6,30.16,WNW,292,13.4,14.2,19,0.00,,CLR,0.00,VWS V14.01,2013-03-20 18:15:00,
2013-03-20 13:17:00,22.2,-11.6,30.16,WSW,248,12.8,26.2,19,0.00,,CLR,0.00,VWS V14.01,2013-03-20 18:17:00,
2013-03-20 13:19:00,22.2,-11.6,30.16,West,270,11.0,19.2,19,0.00,,CLR,0.00,VWS V14.01,2013-03-20 18:19:00,
2013-03-20 13:21:00,22.4,-11.6,30.16,West,270,14.6,14.6,19,0.00,,CLR,0.00,VWS V14.01,2013-03-20 18:21:00,
2013-03-20 13:22:00,22.4,-11.6,30.16,WNW,292,10.6,14.6,19,0.00,,CLR,0.00,VWS V14.01,2013-03-20 18:22:00,
2013-03-20 13:23:00,22.2,-11.6,30.16,NNW,338,12.8,12.8,19,0.00,,CLR,0.00,VWS V14.01,2013-03-20 18:23:00,
2013-03-20 13:24:00,22.2,-11.6,30.16,NE,45,3.4,3.4,19,0.00,,CLR,0.00,VWS V14.01,2013-03-20 18:24:00,
2013-03-20 13:27:00,22.2,-11.6,30.16,NW,315,11.6,16.0,19,0.00,,CLR,0.00,VWS V14.01,2013-03-20 18:27:00,
2013-03-20 13:28:00,22.2,-11.6,30.16,WNW,292,12.8,12.8,19,0.00,,CLR,0.00,VWS V14.01,2013-03-20 18:28:00,
2013-03-20 13:29:00,22.4,-11.6,30.16,WNW,292,10.2,12.8,19,0.00,,CLR,0.00,VWS V14.01,2013-03-20 18:29:00,
2013-03-20 13:33:00,22.6,-11.6,30.16,NNE,22,7.6,7.6,19,0.00,,CLR,0.00,VWS V14.01,2013-03-20 18:33:00,
2013-03-20 13:34:00,22.8,-11.6,30.16,NNW,338,12.4,12.4,19,0.00,,CLR,0.00,VWS V14.01,2013-03-20 18:34:00,
2013-03-20 13:36:00,22.6,-11.6,30.16,NNW,338,13.8,16.4,19,0.00,,CLR,0.00,VWS V14.01,2013-03-20 18:36:00,
2013-03-20 13:38:00,22.8,-11.6,30.16,WSW,248,12.8,12.8,19,0.00,,CLR,0.00,VWS V14.01,2013-03-20 18:38:00,
2013-03-20 13:42:00,22.1,-11.6,30.16,NW,315,14.2,22.8,19,0.00,,SCT040,0.00,VWS V14.01,2013-03-20 18:42:00,
2013-03-20 13:43:00,21.9,-11.6,30.16,NW,315,10.2,10.2,19,0.00,,SCT040,0.00,VWS V14.01,2013-03-20 18:43:00,
2013-03-20 13:44:00,21.9,-11.6,30.15,West,270,9.2,10.2,19,0.00,,SCT040,0.00,VWS V14.01,2013-03-20 18:44:00,
2013-03-20 13:45:00,21.9,-11.6,30.15,West,270,9.2,9.2,19,0.00,,SCT040,0.00,VWS V14.01,2013-03-20 18:45:00,
2013-03-20 13:47:00,22.4,-11.6,30.16,SW,225,5.2,5.2,19,0.00,,SCT040,0.00,VWS V14.01,2013-03-20 18:47:00,
2013-03-20 13:50:00,23.1,-11.6,30.15,NNW,338,31.6,31.6,19,0.00,,SCT040,0.00,VWS V14.01,2013-03-20 18:50:00,
2013-03-20 13:51:00,22.8,-11.6,30.15,NNW,338,5.8,31.6,19,0.00,,SCT040,0.00,VWS V14.01,2013-03-20 18:51:00,
2013-03-20 13:54:00,22.4,-11.6,30.15,WNW,292,6.2,6.2,19,0.00,,SCT040,0.00,VWS V14.01,2013-03-20 18:54:00,
2013-03-20 13:55:00,22.4,-11.6,30.15,WNW,292,12.8,12.8,19,0.00,,SCT040,0.00,VWS V14.01,2013-03-20 18:55:00,
2013-03-20 13:57:00,22.2,-11.6,30.15,NNW,338,19.6,19.6,19,0.00,,SCT040,0.00,VWS V14.01,2013-03-20 18:57:00,
2013-03-20 14:00:00,22.1,-11.6,30.15,NW,315,15.2,15.2,19,0.00,,SCT040,0.00,VWS V14.01,2013-03-20 19:00:00,
2013-03-20 14:02:00,22.2,-11.6,30.14,West,270,3.4,3.4,19,0.00,,SCT040,0.00,VWS V14.01,2013-03-20 19:02:00,
2013-03-20 14:05:00,22.4,-11.6,30.14,West,270,2.6,11.0,19,0.00,,SCT040,0.00,VWS V14.01,2013-03-20 19:05:00,
2013-03-20 14:06:00,22.8,-11.6,30.14,WNW,292,13.8,13.8,19,0.00,,SCT040,0.00,VWS V14.01,2013-03-20 19:06:00,
2013-03-20 14:08:00,23.1,-11.6,30.14,WNW,292,23.2,23.2,19,0.00,,SCT040,0.00,VWS V14.01,2013-03-20 19:08:00,
2013-03-20 14:10:00,22.6,-11.6,30.14,WNW,292,13.4,13.4,19,0.00,,SCT040,0.00,VWS V14.01,2013-03-20 19:10:00,
2013-03-20 14:11:00,22.4,-11.6,30.14,WNW,292,21.0,21.0,19,0.00,,SCT040,0.00,VWS V14.01,2013-03-20 19:11:00,
2013-03-20 14:12:00,22.2,-11.6,30.14,NNW,338,24.6,24.6,19,0.00,,SCT040,0.00,VWS V14.01,2013-03-20 19:12:00,
2013-03-20 14:15:00,22.6,-11.6,30.14,SSW,202,15.2,17.0,19,0.00,,SCT040,0.00,VWS V14.01,2013-03-20 19:15:00,
2013-03-20 14:16:00,22.4,-11.6,30.14,WNW,292,27.6,27.6,19,0.00,,SCT040,0.00,VWS V14.01,2013-03-20 19:16:00,
2013-03-20 14:17:00,22.4,-11.6,30.14,WNW,292,10.6,27.6,19,0.00,,SCT040,0.00,VWS V14.01,2013-03-20 19:17:00,
2013-03-20 14:23:00,22.1,-11.6,30.14,WNW,292,16.0,16.0,19,0.00,,SCT040,0.00,VWS V14.01,2013-03-20 19:23:00,
2013-03-20 14:24:00,22.2,-11.6,30.14,NNW,338,16.4,16.4,19,0.00,,SCT040,0.00,VWS V14.01,2013-03-20 19:24:00,
2013-03-20 14:25:00,22.2,-11.6,30.14,SW,225,10.2,10.2,19,0.00,,SCT040,0.00,VWS V14.01,2013-03-20 19:25:00,
2013-03-20 14:28:00,22.6,-11.6,30.14,NW,315,20.4,20.4,19,0.00,,SCT040,0.00,VWS V14.01,2013-03-20 19:28:00,
2013-03-20 14:29:00,23.1,-11.6,30.14,NW,315,13.4,13.4,19,0.00,,SCT040,0.00,VWS V14.01,2013-03-20 19:29:00,
2013-03-20 14:33:00,23.1,-11.6,30.14,West,270,8.4,8.4,19,0.00,,SCT040,0.00,VWS V14.01,2013-03-20 19:33:00,
2013-03-20 14:34:00,23.1,-11.6,30.13,North,0,0.0,8.4,19,0.00,,SCT040,0.00,VWS V14.01,2013-03-20 19:34:00,
2013-03-20 14:35:00,23.3,-11.6,30.13,NW,315,20.0,20.0,19,0.00,,SCT040,0.00,VWS V14.01,2013-03-20 19:35:00,
2013-03-20 14:39:00,23.5,-11.6,30.13,WNW,292,8.4,8.4,19,0.00,,SCT040,0.00,VWS V14.01,2013-03-20 19:39:00,
2013-03-20 14:40:00,23.7,-11.6,30.13,NW,315,15.6,15.6,19,0.00,,SCT040,0.00,VWS V14.01,2013-03-20 19:40:00,
2013-03-20 14:41:00,23.7,-11.6,30.13,SW,225,10.6,10.6,19,0.00,,SCT040,0.00,VWS V14.01,2013-03-20 19:41:00,
2013-03-20 14:44:00,23.7,-11.6,30.13,NNW,338,9.2,12.0,19,0.00,,SCT040,0.00,VWS V14.01,2013-03-20 19:44:00,
2013-03-20 14:46:00,23.5,-11.6,30.13,North,0,26.2,26.2,19,0.00,,SCT040,0.00,VWS V14.01,2013-03-20 19:46:00,
2013-03-20 14:48:00,23.1,-11.6,30.13,NNE,22,4.4,26.2,19,0.00,,SCT040,0.00,VWS V14.01,2013-03-20 19:48:00,
2013-03-20 14:49:00,23.1,-11.6,30.13,WNW,292,8.0,8.0,19,0.00,,SCT040,0.00,VWS V14.01,2013-03-20 19:49:00,
2013-03-20 14:52:00,23.3,-11.6,30.13,WSW,248,16.4,18.6,19,0.00,,SCT040,0.00,VWS V14.01,2013-03-20 19:52:00,
2013-03-20 14:55:00,23.3,-11.6,30.13,NE,45,0.0,8.4,19,0.00,,SCT040,0.00,VWS V14.01,2013-03-20 19:55:00,
2013-03-20 14:57:00,23.5,-11.6,30.13,NNW,338,19.6,19.6,19,0.00,,SCT040,0.00,VWS V14.01,2013-03-20 19:57:00,
2013-03-20 14:58:00,23.3,-11.6,30.13,NNW,338,19.2,19.6,19,0.00,,SCT040,0.00,VWS V14.01,2013-03-20 19:58:00,
2013-03-20 15:02:00,23.1,-11.6,30.13,WNW,292,5.8,15.2,19,0.00,,SCT040,0.00,VWS V14.01,2013-03-20 20:02:00,
2013-03-20 15:03:00,23.1,-11.6,30.13,WNW,292,5.8,5.8,19,0.00,,SCT040,0.00,VWS V14.01,2013-03-20 20:03:00,
2013-03-20 15:04:00,23.1,-11.6,30.13,WSW,248,13.4,13.4,19,0.00,,SCT040,0.00,VWS V14.01,2013-03-20 20:04:00,
2013-03-20 15:08:00,23.5,-11.6,30.12,NNW,338,6.2,14.6,19,0.00,,SCT040,0.00,VWS V14.01,2013-03-20 20:08:00,
2013-03-20 15:10:00,23.1,-11.6,30.12,WNW,292,7.6,7.6,19,0.00,,SCT040,0.00,VWS V14.01,2013-03-20 20:10:00,
2013-03-20 15:14:00,22.4,-11.6,30.13,SW,225,4.0,8.8,19,0.00,,SCT040,0.00,VWS V14.01,2013-03-20 20:14:00,
2013-03-20 15:18:00,22.4,-11.6,30.13,North,0,10.2,16.4,19,0.00,,SCT040,0.00,VWS V14.01,2013-03-20 20:18:00,
2013-03-20 15:22:00,22.6,-11.6,30.13,NNW,338,14.6,14.6,19,0.00,,SCT040,0.00,VWS V14.01,2013-03-20 20:22:00,
2013-03-20 15:24:00,22.4,-11.6,30.13,WSW,248,12.8,12.8,19,0.00,,SCT040,0.00,VWS V14.01,2013-03-20 20:24:00,
2013-03-20 15:27:00,23.1,-11.6,30.13,NNW,338,20.0,20.0,19,0.00,,SCT040,0.00,VWS V14.01,2013-03-20 20:27:00,
2013-03-20 15:28:00,23.3,-11.6,30.13,West,270,10.2,20.0,19,0.00,,SCT040,0.00,VWS V14.01,2013-03-20 20:28:00,
2013-03-20 15:30:00,23.3,-11.6,30.13,NW,315,9.8,15.2,19,0.00,,SCT040,0.00,VWS V14.01,2013-03-20 20:30:00,
2013-03-20 15:32:00,23.1,-11.6,30.13,NNW,338,1.2,1.2,19,0.00,,SCT040,0.00,VWS V14.01,2013-03-20 20:32:00,
2013-03-20 15:34:00,23.3,-11.6,30.13,WNW,292,11.0,11.6,19,0.00,,SCT040,0.00,VWS V14.01,2013-03-20 20:34:00,
2013-03-20 15:36:00,23.7,-11.6,30.13,NNW,338,17.0,17.0,19,0.00,,SCT040,0.00,VWS V14.01,2013-03-20 20:36:00,
2013-03-20 15:38:00,23.9,-11.6,30.12,WNW,292,7.0,17.0,19,0.00,,SCT040,0.00,VWS V14.01,2013-03-20 20:38:00,
2013-03-20 15:39:00,24.0,-11.6,30.12,WSW,248,10.6,10.6,19,0.00,,SCT040,0.00,VWS V14.01,2013-03-20 20:39:00,
2013-03-20 15:42:00,23.9,-11.6,30.12,NNW,338,5.8,19.2,19,0.00,,CLR,0.00,VWS V14.01,2013-03-20 20:42:00,
2013-03-20 15:45:00,23.9,-11.6,30.12,SW,225,8.0,8.0,19,0.00,,CLR,0.00,VWS V14.01,2013-03-20 20:45:00,
2013-03-20 15:46:00,23.1,-11.6,30.12,NNW,338,20.0,20.0,19,0.00,,CLR,0.00,VWS V14.01,2013-03-20 20:46:00,
2013-03-20 15:48:00,23.1,-11.6,30.13,North,0,0.0,20.0,19,0.00,,CLR,0.00,VWS V14.01,2013-03-20 20:48:00,
2013-03-20 15:50:00,22.2,-11.6,30.13,North,0,7.0,12.8,19,0.00,,CLR,0.00,VWS V14.01,2013-03-20 20:50:00,
2013-03-20 15:53:00,22.1,-11.6,30.12,SW,225,0.0,0.0,19,0.00,,CLR,0.00,VWS V14.01,2013-03-20 20:53:00,
2013-03-20 15:54:00,22.1,-11.6,30.12,NNW,338,28.6,28.6,19,0.00,,CLR,0.00,VWS V14.01,2013-03-20 20:54:00,
2013-03-20 15:58:00,21.9,-11.6,30.12,SW,225,4.8,11.6,19,0.00,,CLR,0.00,VWS V14.01,2013-03-20 20:58:00,
2013-03-20 16:00:00,21.9,-11.6,30.12,North,0,0.0,2.2,19,0.00,,CLR,0.00,VWS V14.01,2013-03-20 21:00:00,
2013-03-20 16:02:00,22.2,-11.6,30.12,NW,315,5.8,11.0,19,0.00,,CLR,0.00,VWS V14.01,2013-03-20 21:02:00,
2013-03-20 16:04:00,22.6,-11.6,30.12,North,0,2.6,15.2,19,0.00,,CLR,0.00,VWS V14.01,2013-03-20 21:04:00,
2013-03-20 16:07:00,23.0,-11.6,30.12,North,0,9.2,9.2,19,0.00,,CLR,0.00,VWS V14.01,2013-03-20 21:07:00,
2013-03-20 16:10:00,22.6,-11.6,30.12,SW,225,8.8,8.8,19,0.00,,CLR,0.00,VWS V14.01,2013-03-20 21:10:00,
2013-03-20 16:12:00,22.8,-11.6,30.12,North,0,8.0,8.0,19,0.00,,CLR,0.00,VWS V14.01,2013-03-20 21:12:00,
2013-03-20 16:14:00,23.0,-11.6,30.12,WNW,292,0.0,12.8,19,0.00,,CLR,0.00,VWS V14.01,2013-03-20 21:14:00,
2013-03-20 16:17:00,23.1,-11.6,30.12,North,0,1.6,9.2,19,0.00,,CLR,0.00,VWS V14.01,2013-03-20 21:17:00,
2013-03-20 16:18:00,22.8,-11.6,30.12,NNW,338,0.0,9.2,19,0.00,,CLR,0.00,VWS V14.01,2013-03-20 21:18:00,
2013-03-20 16:19:00,22.8,-11.6,30.12,WNW,292,3.0,3.0,19,0.00,,CLR,0.00,VWS V14.01,2013-03-20 21:19:00,
2013-03-20 16:24:00,22.6,-11.6,30.12,NNW,338,8.4,22.2,19,0.00,,CLR,0.00,VWS V14.01,2013-03-20 21:24:00,
2013-03-20 16:25:00,22.6,-11.6,30.12,WNW,292,9.2,9.2,19,0.00,,CLR,0.00,VWS V14.01,2013-03-20 21:25:00,
2013-03-20 16:26:00,22.8,-11.6,30.12,NNW,338,13.4,13.4,19,0.00,,CLR,0.00,VWS V14.01,2013-03-20 21:26:00,
2013-03-20 16:30:00,23.3,-11.6,30.11,SW,225,11.6,15.2,19,0.00,,CLR,0.00,VWS V14.01,2013-03-20 21:30:00,
2013-03-20 16:34:00,22.8,-11.6,30.12,SW,225,2.6,2.6,19,0.00,,CLR,0.00,VWS V14.01,2013-03-20 21:34:00,
2013-03-20 16:35:00,23.0,-11.6,30.11,SSW,202,12.0,12.0,19,0.00,,CLR,0.00,VWS V14.01,2013-03-20 21:35:00,
2013-03-20 16:38:00,22.4,-11.6,30.11,NNW,338,12.8,12.8,19,0.00,,CLR,0.00,VWS V14.01,2013-03-20 21:38:00,
2013-03-20 16:41:00,21.9,-11.6,30.11,NW,315,18.2,18.2,19,0.00,,BKN034,0.00,VWS V14.01,2013-03-20 21:41:00,
2013-03-20 16:42:00,22.1,-11.6,30.11,NNW,338,8.0,18.2,19,0.00,,BKN034,0.00,VWS V14.01,2013-03-20 21:42:00,
2013-03-20 16:44:00,22.1,-11.6,30.11,West,270,6.6,6.6,19,0.00,,BKN034,0.00,VWS V14.01,2013-03-20 21:44:00,
2013-03-20 16:47:00,22.8,-11.6,30.11,SSW,202,13.4,13.4,19,0.00,,BKN034,0.00,VWS V14.01,2013-03-20 21:47:00,
2013-03-20 16:48:00,22.8,-11.6,30.11,West,270,8.8,13.4,19,0.00,,BKN034,0.00,VWS V14.01,2013-03-20 21:48:00,
2013-03-20 16:49:00,22.8,-11.6,30.11,SSW,202,7.6,8.8,19,0.00,,BKN034,0.00,VWS V14.01,2013-03-20 21:49:00,
2013-03-20 16:51:00,22.6,-11.6,30.11,SSW,202,8.4,8.4,19,0.00,,BKN034,0.00,VWS V14.01,2013-03-20 21:51:00,
2013-03-20 16:54:00,22.1,-11.6,30.11,NNW,338,12.0,12.0,19,0.00,,BKN034,0.00,VWS V14.01,2013-03-20 21:54:00,
2013-03-20 16:56:00,22.2,-11.6,30.11,North,0,9.8,9.8,19,0.00,,BKN034,0.00,VWS V14.01,2013-03-20 21:56:00,
2013-03-20 16:59:00,22.1,-11.6,30.11,NNW,338,13.4,13.4,19,0.00,,BKN034,0.00,VWS V14.01,2013-03-20 21:59:00,
2013-03-20 17:02:00,22.1,-11.6,30.11,ESE,112,1.2,5.8,19,0.00,,BKN034,0.00,VWS V14.01,2013-03-20 22:02:00,
2013-03-20 17:04:00,22.4,-11.6,30.11,North,0,10.6,10.6,19,0.00,,BKN034,0.00,VWS V14.01,2013-03-20 22:04:00,
2013-03-20 17:08:00,22.2,-11.6,30.11,North,0,0.0,21.0,19,0.00,,BKN034,0.00,VWS V14.01,2013-03-20 22:08:00,
2013-03-20 17:10:00,22.2,-11.6,30.11,WNW,292,6.2,6.2,19,0.00,,BKN034,0.00,VWS V14.01,2013-03-20 22:10:00,
2013-03-20 17:13:00,22.6,-11.6,30.11,WNW,292,2.6,2.6,19,0.00,,BKN034,0.00,VWS V14.01,2013-03-20 22:13:00,
2013-03-20 17:14:00,22.8,-11.6,30.11,West,270,2.6,18.2,19,0.00,,BKN034,0.00,VWS V14.01,2013-03-20 22:14:00,
2013-03-20 17:16:00,22.8,-11.6,30.11,SW,225,2.6,2.6,19,0.00,,BKN034,0.00,VWS V14.01,2013-03-20 22:16:00,
2013-03-20 17:19:00,22.8,-11.6,30.11,SW,225,12.4,12.4,19,0.00,,BKN034,0.00,VWS V14.01,2013-03-20 22:19:00,
2013-03-20 17:22:00,22.4,-11.6,30.11,North,0,8.8,8.8,19,0.00,,BKN034,0.00,VWS V14.01,2013-03-20 22:22:00,
2013-03-20 17:26:00,22.8,-11.6,30.11,West,270,6.2,6.2,19,0.00,,BKN034,0.00,VWS V14.01,2013-03-20 22:26:00,
2013-03-20 17:27:00,22.8,-11.6,30.11,WNW,292,12.4,12.4,19,0.00,,BKN034,0.00,VWS V14.01,2013-03-20 22:27:00,
2013-03-20 17:28:00,22.6,-11.6,30.11,NNW,338,13.4,13.4,19,0.00,,BKN034,0.00,VWS V14.01,2013-03-20 22:28:00,
2013-03-20 17:32:00,22.4,-11.6,30.11,North,0,5.8,12.4,19,0.00,,BKN034,0.00,VWS V14.01,2013-03-20 22:32:00,
2013-03-20 17:33:00,22.2,-11.6,30.11,West,270,14.2,14.2,19,0.00,,BKN034,0.00,VWS V14.01,2013-03-20 22:33:00,
2013-03-20 17:37:00,22.1,-11.6,30.11,SW,225,8.4,8.4,19,0.00,,BKN034,0.00,VWS V14.01,2013-03-20 22:37:00,
2013-03-20 17:39:00,21.9,-11.6,30.11,NNW,338,6.2,6.2,19,0.00,,BKN034,0.00,VWS V14.01,2013-03-20 22:39:00,
2013-03-20 17:40:00,21.7,-11.6,30.11,SW,225,12.4,12.4,19,0.00,,OVC044,0.00,VWS V14.01,2013-03-20 22:40:00,
2013-03-20 17:42:00,21.5,-11.6,30.11,SSW,202,4.4,15.2,19,0.00,,OVC044,0.00,VWS V14.01,2013-03-20 22:42:00,
2013-03-20 17:44:00,21.5,-11.6,30.11,North,0,9.8,9.8,19,0.00,,OVC044,0.00,VWS V14.01,2013-03-20 22:44:00,
2013-03-20 17:47:00,21.9,-11.6,30.11,NNW,338,7.6,7.6,19,0.00,,OVC044,0.00,VWS V14.01,2013-03-20 22:47:00,
2013-03-20 17:48:00,22.1,-11.6,30.11,North,0,11.0,11.0,19,0.00,,OVC044,0.00,VWS V14.01,2013-03-20 22:48:00,
2013-03-20 17:49:00,22.1,-11.6,30.11,SSW,202,8.8,8.8,19,0.00,,OVC044,0.00,VWS V14.01,2013-03-20 22:49:00,
2013-03-20 17:54:00,21.3,-11.6,30.11,NNW,338,5.8,5.8,19,0.00,,OVC044,0.00,VWS V14.01,2013-03-20 22:54:00,
2013-03-20 17:55:00,21.3,-11.6,30.11,SSW,202,9.2,9.2,19,0.00,,OVC044,0.00,VWS V14.01,2013-03-20 22:55:00,
2013-03-20 17:57:00,21.3,-11.6,30.11,North,0,9.8,9.8,19,0.00,,OVC044,0.00,VWS V14.01,2013-03-20 22:57:00,
2013-03-20 18:00:00,21.5,-11.6,30.11,NNW,338,27.6,27.6,19,0.00,,OVC044,0.00,VWS V14.01,2013-03-20 23:00:00,
2013-03-20 18:01:00,21.5,-11.6,30.11,NNW,338,27.6,27.6,19,0.00,,OVC044,0.00,VWS V14.01,2013-03-20 23:01:00,
2013-03-20 18:02:00,21.5,-11.6,30.11,NNW,338,8.0,27.6,19,0.00,,OVC044,0.00,VWS V14.01,2013-03-20 23:02:00,
2013-03-20 18:06:00,21.9,-11.6,30.11,North,0,6.2,9.8,19,0.00,,OVC044,0.00,VWS V14.01,2013-03-20 23:06:00,
2013-03-20 18:07:00,21.7,-11.6,30.11,North,0,2.6,2.6,19,0.00,,OVC044,0.00,VWS V14.01,2013-03-20 23:07:00,
2013-03-20 18:08:00,21.3,-11.6,30.11,North,0,7.6,13.8,19,0.00,,OVC044,0.00,VWS V14.01,2013-03-20 23:08:00,
2013-03-20 18:09:00,21.3,-11.6,30.11,North,0,7.6,7.6,19,0.00,,OVC044,0.00,VWS V14.01,2013-03-20 23:09:00,
2013-03-20 18:12:00,21.2,-11.6,30.11,NNW,338,18.6,18.6,19,0.00,,OVC044,0.00,VWS V14.01,2013-03-20 23:12:00,
2013-03-20 18:14:00,21.0,-11.6,30.11,NNW,338,3.4,18.6,19,0.00,,OVC044,0.00,VWS V14.01,2013-03-20 23:14:00,
2013-03-20 18:18:00,20.8,-11.6,30.10,WNW,292,0.0,0.0,19,0.00,,OVC044,0.00,VWS V14.01,2013-03-20 23:18:00,
2013-03-20 18:19:00,21.0,-11.6,30.11,West,270,0.0,0.0,19,0.00,,OVC044,0.00,VWS V14.01,2013-03-20 23:19:00,
2013-03-20 18:20:00,21.2,-11.6,30.11,NNW,338,2.6,2.6,19,0.00,,OVC044,0.00,VWS V14.01,2013-03-20 23:20:00,
2013-03-20 18:21:00,21.2,-11.6,30.11,SSW,202,6.2,14.2,19,0.00,,OVC044,0.00,VWS V14.01,2013-03-20 23:21:00,
2013-03-20 18:24:00,21.0,-11.6,30.11,WNW,292,4.0,4.0,19,0.00,,OVC044,0.00,VWS V14.01,2013-03-20 23:24:00,
2013-03-20 18:28:00,21.2,-11.6,30.11,WNW,292,11.6,11.6,19,0.00,,OVC044,0.00,VWS V14.01,2013-03-20 23:28:00,
2013-03-20 18:29:00,21.3,-11.6,30.11,WNW,292,3.0,11.6,19,0.00,,OVC044,0.00,VWS V14.01,2013-03-20 23:29:00,
2013-03-20 18:33:00,21.3,-11.6,30.11,West,270,10.2,10.2,19,0.00,,OVC044,0.00,VWS V14.01,2013-03-20 23:33:00,
2013-03-20 18:34:00,21.2,-11.6,30.11,WNW,292,5.8,10.2,19,0.00,,OVC044,0.00,VWS V14.01,2013-03-20 23:34:00,
2013-03-20 18:36:00,20.8,-11.6,30.11,West,270,2.6,13.4,19,0.00,,OVC044,0.00,VWS V14.01,2013-03-20 23:36:00,
2013-03-20 18:39:00,20.8,-11.6,30.11,NNW,338,7.6,7.6,19,0.00,,OVC044,0.00,VWS V14.01,2013-03-20 23:39:00,
2013-03-20 18:40:00,21.0,-11.6,30.11,NNW,338,12.0,12.0,19,0.00,,BKN044,0.00,VWS V14.01,2013-03-20 23:40:00,
2013-03-20 18:41:00,20.8,-11.6,30.11,NNW,338,16.0,16.0,19,0.00,,BKN044,0.00,VWS V14.01,2013-03-20 23:41:00,
2013-03-20 18:42:00,20.8,-11.6,30.11,SSW,202,10.6,16.0,19,0.00,,BKN044,0.00,VWS V14.01,2013-03-20 23:42:00,
2013-03-20 18:46:00,20.6,-11.6,30.11,North,0,8.4,11.6,19,0.00,,BKN044,0.00,VWS V14.01,2013-03-20 23:46:00,
2013-03-20 18:47:00,20.3,-11.6,30.11,SW,225,8.8,8.8,19,0.00,,BKN044,0.00,VWS V14.01,2013-03-20 23:47:00,
2013-03-20 18:48:00,20.4,-11.6,30.11,NNW,338,9.2,9.2,19,0.00,,BKN044,0.00,VWS V14.01,2013-03-20 23:48:00,
2013-03-20 18:52:00,20.4,-11.6,30.11,NNW,338,0.0,9.2,19,0.00,,BKN044,0.00,VWS V14.01,2013-03-20 23:52:00,
2013-03-20 18:54:00,20.4,-11.6,30.11,SSW,202,5.8,9.2,19,0.00,,BKN044,0.00,VWS V14.01,2013-03-20 23:54:00,
2013-03-20 18:58:00,20.3,-11.6,30.11,NNE,22,0.0,0.0,19,0.00,,BKN044,0.00,VWS V14.01,2013-03-20 23:58:00,
2013-03-20 18:59:00,20.3,-11.6,30.11,North,0,0.0,0.0,19,0.00,,BKN044,0.00,VWS V14.01,2013-03-20 23:59:00,
2013-03-20 19:00:00,20.1,-11.6,30.11,North,0,9.2,12.0,19,0.00,,BKN044,0.00,VWS V14.01,2013-03-21 00:00:00,
2013-03-20 19:03:00,20.1,-11.6,30.10,SSW,202,5.2,5.2,19,0.00,,BKN044,0.00,VWS V14.01,2013-03-21 00:03:00,
2013-03-20 19:04:00,20.1,-11.6,30.11,NNW,338,9.8,9.8,19,0.00,,BKN044,0.00,VWS V14.01,2013-03-21 00:04:00,
2013-03-20 19:08:00,20.1,-11.6,30.11,SW,225,4.4,4.4,19,0.00,,BKN044,0.00,VWS V14.01,2013-03-21 00:08:00,
2013-03-20 19:10:00,20.1,-11.6,30.11,North,0,3.4,8.4,19,0.00,,BKN040,0.00,VWS V14.01,2013-03-21 00:10:00,
2013-03-20 19:12:00,19.9,-11.6,30.11,North,0,10.6,12.0,19,0.00,,BKN040,0.00,VWS V14.01,2013-03-21 00:12:00,
2013-03-20 19:13:00,19.9,-11.6,30.11,SSW,202,7.0,10.6,19,0.00,,BKN040,0.00,VWS V14.01,2013-03-21 00:13:00,
2013-03-20 19:14:00,19.7,-11.6,30.11,SW,225,4.8,10.6,19,0.00,,BKN040,0.00,VWS V14.01,2013-03-21 00:14:00,
2013-03-20 19:17:00,19.9,-11.6,30.11,NNW,338,13.4,13.4,19,0.00,,BKN040,0.00,VWS V14.01,2013-03-21 00:17:00,
2013-03-20 19:18:00,19.7,-11.6,30.11,NNW,338,5.8,13.4,19,0.00,,BKN040,0.00,VWS V14.01,2013-03-21 00:18:00,
2013-03-20 19:19:00,19.7,-11.6,30.11,SSW,202,5.2,5.8,19,0.00,,BKN040,0.00,VWS V14.01,2013-03-21 00:19:00,
2013-03-20 19:21:00,19.7,-11.6,30.11,NNW,338,6.2,9.2,19,0.00,,BKN040,0.00,VWS V14.01,2013-03-21 00:21:00,
2013-03-20 19:23:00,19.7,-11.6,30.11,SSW,202,4.8,4.8,19,0.00,,BKN040,0.00,VWS V14.01,2013-03-21 00:23:00,
2013-03-20 19:25:00,19.7,-11.6,30.11,NNW,338,6.6,6.6,19,0.00,,BKN040,0.00,VWS V14.01,2013-03-21 00:25:00,
2013-03-20 19:27:00,19.7,-11.6,30.10,SSW,202,0.0,8.4,19,0.00,,BKN040,0.00,VWS V14.01,2013-03-21 00:27:00,
2013-03-20 19:30:00,19.7,-11.6,30.11,SSW,202,3.4,4.4,19,0.00,,BKN040,0.00,VWS V14.01,2013-03-21 00:30:00,
2013-03-20 19:32:00,19.5,-11.6,30.10,NNW,338,0.0,7.0,19,0.00,,BKN040,0.00,VWS V14.01,2013-03-21 00:32:00,
2013-03-20 19:34:00,19.5,-11.6,30.10,SSW,202,8.0,8.0,19,0.00,,BKN040,0.00,VWS V14.01,2013-03-21 00:34:00,
2013-03-20 19:36:00,19.5,-11.6,30.10,North,0,0.0,8.0,19,0.00,,BKN040,0.00,VWS V14.01,2013-03-21 00:36:00,
2013-03-20 19:38:00,19.5,-11.6,30.10,SSW,202,4.8,5.2,19,0.00,,BKN040,0.00,VWS V14.01,2013-03-21 00:38:00,
2013-03-20 19:44:00,19.5,-11.6,30.10,SW,225,0.0,2.6,19,0.00,,BKN040,0.00,VWS V14.01,2013-03-21 00:44:00,
2013-03-20 19:46:00,19.5,-11.6,30.10,SSW,202,3.0,3.4,19,0.00,,BKN040,0.00,VWS V14.01,2013-03-21 00:46:00,
2013-03-20 19:48:00,19.5,-11.6,30.10,North,0,8.8,8.8,19,0.00,,BKN040,0.00,VWS V14.01,2013-03-21 00:48:00,
2013-03-20 19:52:00,19.2,-11.6,30.10,North,0,4.8,4.8,19,0.00,,BKN040,0.00,VWS V14.01,2013-03-21 00:52:00,
2013-03-20 19:53:00,19.2,-11.6,30.10,North,0,1.2,1.2,19,0.00,,BKN040,0.00,VWS V14.01,2013-03-21 00:53:00,
2013-03-20 19:54:00,19.4,-11.6,30.10,NNW,338,4.8,8.8,19,0.00,,BKN040,0.00,VWS V14.01,2013-03-21 00:54:00,
2013-03-20 19:58:00,19.2,-11.6,30.10,SSW,202,4.0,4.0,19,0.00,,BKN040,0.00,VWS V14.01,2013-03-21 00:58:00,
2013-03-20 20:01:00,19.0,-11.6,30.10,NNW,338,6.2,6.2,19,0.00,,BKN040,0.00,VWS V14.01,2013-03-21 01:01:00,
2013-03-20 20:02:00,19.0,-11.6,30.10,NNW,338,7.6,7.6,19,0.00,,BKN040,0.00,VWS V14.01,2013-03-21 01:02:00,
2013-03-20 20:03:00,19.0,-11.6,30.10,NNW,338,4.8,7.6,19,0.00,,BKN040,0.00,VWS V14.01,2013-03-21 01:03:00,
2013-03-20 20:04:00,19.0,-11.6,30.10,North,0,6.2,7.6,19,0.00,,BKN040,0.00,VWS V14.01,2013-03-21 01:04:00,
2013-03-20 20:07:00,19.0,-11.6,30.10,North,0,5.2,8.0,19,0.00,,BKN040,0.00,VWS V14.01,2013-03-21 01:07:00,
2013-03-20 20:08:00,19.0,-11.6,30.10,North,0,4.8,4.8,19,0.00,,BKN040,0.00,VWS V14.01,2013-03-21 01:08:00,
2013-03-20 20:10:00,18.8,-11.6,30.10,SSW,202,3.0,4.8,19,0.00,,BKN040,0.00,VWS V14.01,2013-03-21 01:10:00,
2013-03-20 20:13:00,19.0,-11.6,30.10,SSW,202,5.2,5.2,19,0.00,,BKN040,0.00,VWS V14.01,2013-03-21 01:13:00,
2013-03-20 20:14:00,18.8,-11.6,30.10,NNW,338,0.0,5.2,19,0.00,,BKN040,0.00,VWS V14.01,2013-03-21 01:14:00,
2013-03-20 20:15:00,19.0,-11.6,30.10,NNW,338,0.0,0.0,19,0.00,,BKN040,0.00,VWS V14.01,2013-03-21 01:15:00,
2013-03-20 20:16:00,18.8,-11.6,30.10,NNW,338,0.0,0.0,19,0.00,,BKN040,0.00,VWS V14.01,2013-03-21 01:16:00,
2013-03-20 20:20:00,18.8,-11.6,30.10,North,0,10.2,16.0,19,0.00,,BKN040,0.00,VWS V14.01,2013-03-21 01:20:00,
2013-03-20 20:22:00,18.8,-11.6,30.10,North,0,10.2,10.2,19,0.00,,BKN040,0.00,VWS V14.01,2013-03-21 01:22:00,
2013-03-20 20:24:00,18.8,-11.6,30.10,NNW,338,9.8,9.8,19,0.00,,BKN040,0.00,VWS V14.01,2013-03-21 01:24:00,
2013-03-20 20:27:00,18.8,-11.6,30.10,North,0,6.2,6.2,19,0.00,,BKN040,0.00,VWS V14.01,2013-03-21 01:27:00,
2013-03-20 20:28:00,18.8,-11.6,30.10,North,0,2.2,6.6,19,0.00,,BKN040,0.00,VWS V14.01,2013-03-21 01:28:00,
2013-03-20 20:30:00,18.6,-11.6,30.10,NNW,338,5.2,5.2,19,0.00,,BKN040,0.00,VWS V14.01,2013-03-21 01:30:00,
2013-03-20 20:34:00,18.6,-11.6,30.10,NNW,338,1.6,4.8,19,0.00,,BKN040,0.00,VWS V14.01,2013-03-21 01:34:00,
2013-03-20 20:38:00,18.6,-11.6,30.10,SSW,202,4.0,4.8,19,0.00,,BKN040,0.00,VWS V14.01,2013-03-21 01:38:00,
2013-03-20 20:40:00,18.5,-11.6,30.10,NNW,338,8.8,10.2,19,0.00,,FEW032,0.00,VWS V14.01,2013-03-21 01:40:00,
2013-03-20 20:41:00,18.5,-11.6,30.09,SSW,202,2.6,2.6,19,0.00,,FEW032,0.00,VWS V14.01,2013-03-21 01:41:00,
2013-03-20 20:43:00,18.5,-11.6,30.09,SW,225,4.0,4.0,19,0.00,,FEW032,0.00,VWS V14.01,2013-03-21 01:43:00,
2013-03-20 20:44:00,18.5,-11.6,30.09,North,0,4.8,6.6,19,0.00,,FEW032,0.00,VWS V14.01,2013-03-21 01:44:00,
2013-03-20 20:46:00,18.3,-11.6,30.09,North,0,5.2,5.2,19,0.00,,FEW032,0.00,VWS V14.01,2013-03-21 01:46:00,
2013-03-20 20:48:00,18.5,-11.6,30.09,North,0,12.4,12.4,19,0.00,,FEW032,0.00,VWS V14.01,2013-03-21 01:48:00,
2013-03-20 20:49:00,18.5,-11.6,30.09,North,0,5.2,12.4,19,0.00,,FEW032,0.00,VWS V14.01,2013-03-21 01:49:00,
2013-03-20 20:50:00,18.5,-11.6,30.09,NNW,338,4.4,12.4,19,0.00,,FEW032,0.00,VWS V14.01,2013-03-21 01:50:00,
2013-03-20 20:52:00,18.5,-11.6,30.09,SSW,202,6.2,6.2,19,0.00,,FEW032,0.00,VWS V14.01,2013-03-21 01:52:00,
2013-03-20 20:54:00,18.3,-11.6,30.09,SW,225,4.8,4.8,19,0.00,,FEW032,0.00,VWS V14.01,2013-03-21 01:54:00,
2013-03-20 20:55:00,18.5,-11.6,30.10,North,0,8.0,8.0,19,0.00,,FEW032,0.00,VWS V14.01,2013-03-21 01:55:00,
2013-03-20 21:00:00,18.3,-11.6,30.10,North,0,0.0,0.0,19,0.00,,FEW032,0.00,VWS V14.01,2013-03-21 02:00:00,
2013-03-20 21:02:00,18.3,-11.6,30.10,SW,225,2.6,2.6,20,0.00,,FEW032,0.00,VWS V14.01,2013-03-21 02:02:00,
2013-03-20 21:03:00,18.3,-11.6,30.10,North,0,7.6,7.6,19,0.00,,FEW032,0.00,VWS V14.01,2013-03-21 02:03:00,
2013-03-20 21:06:00,18.3,-11.6,30.10,North,0,7.0,7.0,21,0.00,,FEW032,0.00,VWS V14.01,2013-03-21 02:06:00,
2013-03-20 21:08:00,18.3,-11.6,30.10,North,0,6.6,6.6,22,0.00,,FEW032,0.00,VWS V14.01,2013-03-21 02:08:00,
2013-03-20 21:13:00,18.3,-11.6,30.10,North,0,4.4,4.4,24,0.00,,FEW032,0.00,VWS V14.01,2013-03-21 02:13:00,
2013-03-20 21:15:00,18.3,-11.6,30.10,North,0,12.8,12.8,25,0.00,,FEW032,0.00,VWS V14.01,2013-03-21 02:15:00,
2013-03-20 21:16:00,18.5,-9.9,30.10,NNW,338,6.2,12.8,27,0.00,,FEW032,0.00,VWS V14.01,2013-03-21 02:16:00,
2013-03-20 21:18:00,18.3,-11.6,30.10,NNW,338,10.6,10.6,25,0.00,,FEW032,0.00,VWS V14.01,2013-03-21 02:18:00,
2013-03-20 21:20:00,18.5,-9.2,30.10,North,0,8.0,10.6,28,0.00,,FEW032,0.00,VWS V14.01,2013-03-21 02:20:00,
2013-03-20 21:22:00,18.3,-9.3,30.10,NNW,338,0.0,8.8,28,0.00,,FEW032,0.00,VWS V14.01,2013-03-21 02:22:00,
2013-03-20 21:24:00,18.5,-9.2,30.09,NNW,338,6.2,6.2,28,0.00,,FEW032,0.00,VWS V14.01,2013-03-21 02:24:00,
2013-03-20 21:25:00,18.5,-9.2,30.09,NNW,338,6.2,6.2,28,0.00,,FEW032,0.00,VWS V14.01,2013-03-21 02:25:00,
2013-03-20 21:27:00,18.5,-8.4,30.10,North,0,7.6,7.6,29,0.00,,FEW032,0.00,VWS V14.01,2013-03-21 02:27:00,
2013-03-20 21:31:00,18.5,-9.2,30.10,NNW,338,11.0,11.0,28,0.00,,FEW032,0.00,VWS V14.01,2013-03-21 02:31:00,
2013-03-20 21:32:00,18.3,-9.3,30.10,NNW,338,9.8,11.0,28,0.00,,FEW032,0.00,VWS V14.01,2013-03-21 02:32:00,
2013-03-20 21:34:00,18.3,-7.3,30.09,NNW,338,16.4,16.4,31,0.00,,FEW032,0.00,VWS V14.01,2013-03-21 02:34:00,
2013-03-20 21:38:00,18.3,-7.9,30.10,NNW,338,16.0,16.0,30,0.00,,FEW032,0.00,VWS V14.01,2013-03-21 02:38:00,
2013-03-20 21:40:00,18.3,-8.6,30.10,North,0,4.4,16.0,29,0.00,,FEW032,0.00,VWS V14.01,2013-03-21 02:40:00,
2013-03-20 21:43:00,18.3,-8.6,30.10,North,0,6.6,7.6,29,0.00,,FEW032,0.00,VWS V14.01,2013-03-21 02:43:00,
2013-03-20 21:44:00,18.3,-10.1,30.10,North,0,0.0,7.6,27,0.00,,FEW032,0.00,VWS V14.01,2013-03-21 02:44:00,
2013-03-20 21:45:00,18.3,-9.3,30.10,NNW,338,4.8,4.8,28,0.00,,FEW032,0.00,VWS V14.01,2013-03-21 02:45:00,
2013-03-20 21:48:00,18.1,-10.2,30.10,NNW,338,14.2,14.2,27,0.00,,FEW032,0.00,VWS V14.01,2013-03-21 02:48:00,
2013-03-20 21:51:00,18.1,-8.8,30.10,NNW,338,4.4,4.4,29,0.00,,FEW032,0.00,VWS V14.01,2013-03-21 02:51:00,
2013-03-20 21:52:00,18.1,-10.2,30.09,NNW,338,0.0,9.2,27,0.00,,FEW032,0.00,VWS V14.01,2013-03-21 02:52:00,
2013-03-20 21:56:00,17.9,-8.3,30.10,North,0,4.4,9.8,30,0.00,,FEW032,0.00,VWS V14.01,2013-03-21 02:56:00,
2013-03-20 21:58:00,17.9,-11.2,30.10,North,0,8.8,8.8,26,0.00,,FEW032,0.00,VWS V14.01,2013-03-21 02:58:00,
2013-03-20 21:59:00,17.9,-10.4,30.10,North,0,7.6,7.6,27,0.00,,FEW032,0.00,VWS V14.01,2013-03-21 02:59:00,
2013-03-20 22:01:00,17.9,-10.4,30.10,NNW,338,8.0,8.0,27,0.00,,FEW032,0.00,VWS V14.01,2013-03-21 03:01:00,
2013-03-20 22:04:00,17.7,-10.6,30.10,NNW,338,0.0,9.8,23,0.00,,FEW032,0.00,VWS V14.01,2013-03-21 03:04:00,
2013-03-20 22:06:00,17.9,-9.0,30.10,NNW,338,0.0,0.0,29,0.00,,FEW032,0.00,VWS V14.01,2013-03-21 03:06:00,
2013-03-20 22:12:00,17.7,-9.1,30.10,NNW,338,10.6,12.4,29,0.00,,FEW032,0.00,VWS V14.01,2013-03-21 03:12:00,
2013-03-20 22:14:00,17.7,-9.9,30.10,NNW,338,12.8,12.8,28,0.00,,FEW032,0.00,VWS V14.01,2013-03-21 03:14:00,
2013-03-20 22:18:00,17.4,-10.1,30.10,NNW,338,6.6,12.0,28,0.00,,FEW032,0.00,VWS V14.01,2013-03-21 03:18:00,
2013-03-20 22:19:00,17.4,-10.1,30.10,North,0,16.4,16.4,28,0.00,,FEW032,0.00,VWS V14.01,2013-03-21 03:19:00,
2013-03-20 22:22:00,17.4,-9.4,30.11,North,0,12.4,12.4,29,0.00,,FEW032,0.00,VWS V14.01,2013-03-21 03:22:00,
2013-03-20 22:26:00,17.2,-9.6,30.10,NNW,338,16.4,16.4,29,0.00,,FEW032,0.00,VWS V14.01,2013-03-21 03:26:00,
2013-03-20 22:27:00,17.2,-10.3,30.11,NNW,338,9.2,16.4,28,0.00,,FEW032,0.00,VWS V14.01,2013-03-21 03:27:00,
2013-03-20 22:28:00,17.2,-9.6,30.10,North,0,15.6,16.4,29,0.00,,FEW032,0.00,VWS V14.01,2013-03-21 03:28:00,
2013-03-20 22:31:00,17.2,-10.3,30.11,NNW,338,10.2,10.2,28,0.00,,FEW032,0.00,VWS V14.01,2013-03-21 03:31:00,
2013-03-20 22:33:00,17.2,-10.3,30.11,NNW,338,9.2,9.2,28,0.00,,FEW032,0.00,VWS V14.01,2013-03-21 03:33:00,
2013-03-20 22:34:00,17.2,-9.6,30.11,North,0,10.2,10.2,29,0.00,,FEW032,0.00,VWS V14.01,2013-03-21 03:34:00,
2013-03-20 22:35:00,17.2,-9.6,30.11,NNW,338,5.8,10.2,29,0.00,,FEW032,0.00,VWS V14.01,2013-03-21 03:35:00,
2013-03-20 22:39:00,17.2,-8.9,30.11,NNW,338,6.6,9.2,30,0.00,,OVC042,0.00,VWS V14.01,2013-03-21 03:39:00,
2013-03-20 22:40:00,17.0,-8.9,30.11,North,0,8.4,8.4,25,0.00,,OVC042,0.00,VWS V14.01,2013-03-21 03:40:00,
2013-03-20 22:43:00,17.0,-9.1,30.11,NNW,338,11.0,11.0,30,0.00,,OVC042,0.00,VWS V14.01,2013-03-21 03:43:00,
2013-03-20 22:46:00,17.0,-8.4,30.11,NNW,338,9.8,9.8,31,0.00,,OVC042,0.00,VWS V14.01,2013-03-21 03:46:00,
2013-03-20 22:48:00,17.0,-9.1,30.10,North,0,11.6,11.6,30,0.00,,OVC042,0.00,VWS V14.01,2013-03-21 03:48:00,
2013-03-20 22:52:00,16.8,-8.6,30.10,NNW,338,9.2,9.2,31,0.00,,OVC042,0.00,VWS V14.01,2013-03-21 03:52:00,
2013-03-20 22:53:00,16.8,-8.6,30.10,NNW,338,7.6,9.2,31,0.00,,OVC042,0.00,VWS V14.01,2013-03-21 03:53:00,
2013-03-20 22:56:00,16.8,-7.9,30.10,NNW,338,6.6,11.6,32,0.00,,OVC042,0.00,VWS V14.01,2013-03-21 03:56:00,
2013-03-20 22:57:00,16.8,-7.9,30.10,NNW,338,6.6,6.6,32,0.00,,OVC042,0.00,VWS V14.01,2013-03-21 03:57:00,
2013-03-20 22:58:00,16.7,-8.0,30.11,NNW,338,6.6,6.6,32,0.00,,OVC042,0.00,VWS V14.01,2013-03-21 03:58:00,
2013-03-20 23:00:00,16.7,-7.4,30.11,NNW,338,4.4,6.6,33,0.00,,OVC042,0.00,VWS V14.01,2013-03-21 04:00:00,
2013-03-20 23:01:00,16.7,-7.4,30.11,North,0,11.6,11.6,33,0.00,,OVC042,0.00,VWS V14.01,2013-03-21 04:01:00,
2013-03-20 23:04:00,16.7,-6.8,30.11,NNW,338,8.4,14.6,34,0.00,,OVC042,0.00,VWS V14.01,2013-03-21 04:04:00,
2013-03-20 23:05:00,16.7,-6.8,30.11,NNW,338,8.4,8.4,34,0.00,,OVC042,0.00,VWS V14.01,2013-03-21 04:05:00,
2013-03-20 23:07:00,16.5,-7.6,30.11,NNW,338,7.0,7.0,33,0.00,,OVC042,0.00,VWS V14.01,2013-03-21 04:07:00,
2013-03-20 23:10:00,16.5,-7.0,30.11,North,0,10.2,10.2,34,0.00,,OVC042,0.00,VWS V14.01,2013-03-21 04:10:00,
2013-03-20 23:12:00,16.5,-7.0,30.11,NNW,338,9.8,10.2,34,0.00,,OVC042,0.00,VWS V14.01,2013-03-21 04:12:00,
2013-03-20 23:14:00,16.5,-7.6,30.11,NNW,338,12.4,12.4,33,0.00,,OVC042,0.00,VWS V14.01,2013-03-21 04:14:00,
2013-03-20 23:16:00,16.3,-7.8,30.11,NNW,338,12.0,12.8,33,0.00,,OVC042,0.00,VWS V14.01,2013-03-21 04:16:00,
2013-03-20 23:21:00,16.1,-7.9,30.10,North,0,7.0,7.0,33,0.00,,OVC042,0.00,VWS V14.01,2013-03-21 04:21:00,
2013-03-20 23:22:00,16.1,-7.9,30.10,NNW,338,11.6,11.6,33,0.00,,OVC042,0.00,VWS V14.01,2013-03-21 04:22:00,
2013-03-20 23:23:00,16.1,-8.6,30.10,NNW,338,4.4,4.4,32,0.00,,OVC042,0.00,VWS V14.01,2013-03-21 04:23:00,
2013-03-20 23:26:00,16.1,-8.6,30.10,North,0,8.8,8.8,32,0.00,,OVC042,0.00,VWS V14.01,2013-03-21 04:26:00,
2013-03-20 23:27:00,16.1,-8.6,30.10,NNW,338,6.6,6.6,32,0.00,,OVC042,0.00,VWS V14.01,2013-03-21 04:27:00,
2013-03-20 23:28:00,15.9,-10.0,30.11,NNW,338,8.8,14.6,30,0.00,,OVC042,0.00,VWS V14.01,2013-03-21 04:28:00,
2013-03-20 23:32:00,15.9,-9.4,30.11,North,0,4.0,4.0,31,0.00,,OVC042,0.00,VWS V14.01,2013-03-21 04:32:00,
2013-03-20 23:34:00,15.9,-9.4,30.10,NNW,338,12.8,12.8,31,0.00,,OVC042,0.00,VWS V14.01,2013-03-21 04:34:00,
2013-03-20 23:36:00,15.9,-10.0,30.10,NNW,338,16.0,16.0,30,0.00,,OVC042,0.00,VWS V14.01,2013-03-21 04:36:00,
2013-03-20 23:39:00,15.8,-10.1,30.10,NNW,338,8.0,8.0,30,0.00,,OVC042,0.00,VWS V14.01,2013-03-21 04:39:00,
2013-03-20 23:40:00,15.6,-10.3,30.10,NNW,338,12.0,12.0,30,0.00,,OVC040,0.00,VWS V14.01,2013-03-21 04:40:00,
2013-03-20 23:41:00,15.6,-10.3,30.10,NNW,338,5.2,12.0,30,0.00,,OVC040,0.00,VWS V14.01,2013-03-21 04:41:00,
2013-03-20 23:46:00,15.4,-11.2,30.10,NNW,338,7.6,7.6,29,0.00,,OVC040,0.00,VWS V14.01,2013-03-21 04:46:00,
2013-03-20 23:48:00,15.4,-11.2,30.10,NNW,338,7.6,7.6,29,0.00,,OVC040,0.00,VWS V14.01,2013-03-21 04:48:00,
2013-03-20 23:49:00,15.4,-11.2,30.10,NNW,338,6.2,7.6,27,0.00,,OVC040,0.00,VWS V14.01,2013-03-21 04:49:00,
2013-03-20 23:52:00,15.4,-11.2,30.10,NNE,22,4.8,5.2,29,0.00,,OVC040,0.00,VWS V14.01,2013-03-21 04:52:00,
2013-03-20 23:53:00,15.2,-10.7,30.10,NNW,338,7.0,7.0,30,0.00,,OVC040,0.00,VWS V14.01,2013-03-21 04:53:00,
2013-03-20 23:58:00,15.2,-10.7,30.10,NNW,338,8.4,8.4,30,0.00,,OVC040,0.00,VWS V14.01,2013-03-21 04:58:00,